<?xml version="1.0" encoding="UTF-8" standalone="no" ?>
<gpx xmlns="http://www.topografix.com/GPX/1/1" xmlns:xsi="http://www.w3.org/2001/XMLSchema-instance" xsi:schemaLocation="http://www.topografix.com/GPX/1/1 http://www.topografix.com/GPX/1/1/gpx.xsd" version="1.1" creator="VisuGPX - https://www.visugpx.com">
  <metadata>
    <name>Pass_Steige</name>
    <desc><![CDATA[
]]></desc>
  </metadata>
  <trk>
    <name><![CDATA[11180927-Pass_Steige]]></name>
    <trkseg>
      <trkpt lat="48.36046" lon="7.23875">
        <ele>357</ele>
        <time>2020-04-05T16:42:45Z</time>
      </trkpt>
      <trkpt lat="48.36017" lon="7.23919">
        <ele>356</ele>
        <time>2020-04-05T16:42:52Z</time>
      </trkpt>
      <trkpt lat="48.35955" lon="7.24034">
        <ele>355</ele>
        <time>2020-04-05T16:43:10Z</time>
      </trkpt>
      <trkpt lat="48.35941" lon="7.24057">
        <ele>355</ele>
        <time>2020-04-05T16:43:14Z</time>
      </trkpt>
      <trkpt lat="48.35855" lon="7.24169">
        <ele>355</ele>
        <time>2020-04-05T16:43:34Z</time>
      </trkpt>
      <trkpt lat="48.3581" lon="7.2423">
        <ele>354</ele>
        <time>2020-04-05T16:43:45Z</time>
      </trkpt>
      <trkpt lat="48.358" lon="7.24247">
        <ele>355</ele>
        <time>2020-04-05T16:43:47Z</time>
      </trkpt>
      <trkpt lat="48.35781" lon="7.24284">
        <ele>355</ele>
        <time>2020-04-05T16:43:53Z</time>
      </trkpt>
      <trkpt lat="48.35774" lon="7.24292">
        <ele>355</ele>
        <time>2020-04-05T16:43:54Z</time>
      </trkpt>
      <trkpt lat="48.35768" lon="7.24296">
        <ele>355</ele>
        <time>2020-04-05T16:43:55Z</time>
      </trkpt>
      <trkpt lat="48.35667" lon="7.24333">
        <ele>345</ele>
        <time>2020-04-05T16:44:14Z</time>
      </trkpt>
      <trkpt lat="48.35637" lon="7.24356">
        <ele>344</ele>
        <time>2020-04-05T16:44:20Z</time>
      </trkpt>
      <trkpt lat="48.35608" lon="7.24388">
        <ele>342</ele>
        <time>2020-04-05T16:44:26Z</time>
      </trkpt>
      <trkpt lat="48.35572" lon="7.24442">
        <ele>340</ele>
        <time>2020-04-05T16:44:35Z</time>
      </trkpt>
      <trkpt lat="48.3556" lon="7.24466">
        <ele>339</ele>
        <time>2020-04-05T16:44:39Z</time>
      </trkpt>
      <trkpt lat="48.35552" lon="7.2449">
        <ele>339</ele>
        <time>2020-04-05T16:44:42Z</time>
      </trkpt>
      <trkpt lat="48.35545" lon="7.24546">
        <ele>339</ele>
        <time>2020-04-05T16:44:49Z</time>
      </trkpt>
      <trkpt lat="48.35541" lon="7.2462">
        <ele>338</ele>
        <time>2020-04-05T16:44:58Z</time>
      </trkpt>
      <trkpt lat="48.35539" lon="7.24868">
        <ele>335</ele>
        <time>2020-04-05T16:45:27Z</time>
      </trkpt>
      <trkpt lat="48.35537" lon="7.24903">
        <ele>334</ele>
        <time>2020-04-05T16:45:31Z</time>
      </trkpt>
      <trkpt lat="48.3552" lon="7.25175">
        <ele>329</ele>
        <time>2020-04-05T16:46:03Z</time>
      </trkpt>
      <trkpt lat="48.35512" lon="7.25255">
        <ele>326</ele>
        <time>2020-04-05T16:46:13Z</time>
      </trkpt>
      <trkpt lat="48.35487" lon="7.25434">
        <ele>322</ele>
        <time>2020-04-05T16:46:35Z</time>
      </trkpt>
      <trkpt lat="48.35483" lon="7.25434">
        <ele>322</ele>
        <time>2020-04-05T16:46:35Z</time>
      </trkpt>
      <trkpt lat="48.35479" lon="7.25436">
        <ele>322</ele>
        <time>2020-04-05T16:46:36Z</time>
      </trkpt>
      <trkpt lat="48.35477" lon="7.25441">
        <ele>322</ele>
        <time>2020-04-05T16:46:37Z</time>
      </trkpt>
      <trkpt lat="48.35476" lon="7.25447">
        <ele>322</ele>
        <time>2020-04-05T16:46:38Z</time>
      </trkpt>
      <trkpt lat="48.35477" lon="7.25452">
        <ele>322</ele>
        <time>2020-04-05T16:46:38Z</time>
      </trkpt>
      <trkpt lat="48.3548" lon="7.25457">
        <ele>323</ele>
        <time>2020-04-05T16:46:39Z</time>
      </trkpt>
      <trkpt lat="48.35483" lon="7.25459">
        <ele>323</ele>
        <time>2020-04-05T16:46:40Z</time>
      </trkpt>
      <trkpt lat="48.35481" lon="7.25479">
        <ele>323</ele>
        <time>2020-04-05T16:46:42Z</time>
      </trkpt>
      <trkpt lat="48.35421" lon="7.25776">
        <ele>318</ele>
        <time>2020-04-05T16:47:19Z</time>
      </trkpt>
      <trkpt lat="48.35397" lon="7.25888">
        <ele>319</ele>
        <time>2020-04-05T16:47:33Z</time>
      </trkpt>
      <trkpt lat="48.35387" lon="7.25942">
        <ele>319</ele>
        <time>2020-04-05T16:47:39Z</time>
      </trkpt>
      <trkpt lat="48.35383" lon="7.25987">
        <ele>319</ele>
        <time>2020-04-05T16:47:45Z</time>
      </trkpt>
      <trkpt lat="48.35377" lon="7.26091">
        <ele>317</ele>
        <time>2020-04-05T16:47:57Z</time>
      </trkpt>
      <trkpt lat="48.35373" lon="7.26118">
        <ele>316</ele>
        <time>2020-04-05T16:48:00Z</time>
      </trkpt>
      <trkpt lat="48.35369" lon="7.26133">
        <ele>316</ele>
        <time>2020-04-05T16:48:02Z</time>
      </trkpt>
      <trkpt lat="48.35334" lon="7.26244">
        <ele>311</ele>
        <time>2020-04-05T16:48:17Z</time>
      </trkpt>
      <trkpt lat="48.35328" lon="7.2627">
        <ele>310</ele>
        <time>2020-04-05T16:48:20Z</time>
      </trkpt>
      <trkpt lat="48.35327" lon="7.26289">
        <ele>309</ele>
        <time>2020-04-05T16:48:22Z</time>
      </trkpt>
      <trkpt lat="48.3533" lon="7.26363">
        <ele>308</ele>
        <time>2020-04-05T16:48:31Z</time>
      </trkpt>
      <trkpt lat="48.35338" lon="7.26429">
        <ele>310</ele>
        <time>2020-04-05T16:48:39Z</time>
      </trkpt>
      <trkpt lat="48.35349" lon="7.26581">
        <ele>312</ele>
        <time>2020-04-05T16:48:57Z</time>
      </trkpt>
      <trkpt lat="48.35349" lon="7.26669">
        <ele>311</ele>
        <time>2020-04-05T16:49:07Z</time>
      </trkpt>
      <trkpt lat="48.35346" lon="7.26711">
        <ele>310</ele>
        <time>2020-04-05T16:49:12Z</time>
      </trkpt>
      <trkpt lat="48.35347" lon="7.26749">
        <ele>311</ele>
        <time>2020-04-05T16:49:17Z</time>
      </trkpt>
      <trkpt lat="48.35344" lon="7.26804">
        <ele>309</ele>
        <time>2020-04-05T16:49:23Z</time>
      </trkpt>
      <trkpt lat="48.35333" lon="7.26908">
        <ele>306</ele>
        <time>2020-04-05T16:49:36Z</time>
      </trkpt>
      <trkpt lat="48.35293" lon="7.27217">
        <ele>305</ele>
        <time>2020-04-05T16:50:13Z</time>
      </trkpt>
      <trkpt lat="48.35281" lon="7.2733">
        <ele>306</ele>
        <time>2020-04-05T16:50:26Z</time>
      </trkpt>
      <trkpt lat="48.35279" lon="7.27383">
        <ele>305</ele>
        <time>2020-04-05T16:50:33Z</time>
      </trkpt>
      <trkpt lat="48.35251" lon="7.27779">
        <ele>304</ele>
        <time>2020-04-05T16:51:20Z</time>
      </trkpt>
      <trkpt lat="48.35246" lon="7.2783">
        <ele>303</ele>
        <time>2020-04-05T16:51:26Z</time>
      </trkpt>
      <trkpt lat="48.35243" lon="7.27851">
        <ele>303</ele>
        <time>2020-04-05T16:51:28Z</time>
      </trkpt>
      <trkpt lat="48.35196" lon="7.28033">
        <ele>302</ele>
        <time>2020-04-05T16:51:52Z</time>
      </trkpt>
      <trkpt lat="48.35116" lon="7.28363">
        <ele>298</ele>
        <time>2020-04-05T16:52:33Z</time>
      </trkpt>
      <trkpt lat="48.35108" lon="7.28412">
        <ele>297</ele>
        <time>2020-04-05T16:52:39Z</time>
      </trkpt>
      <trkpt lat="48.35096" lon="7.28512">
        <ele>294</ele>
        <time>2020-04-05T16:52:51Z</time>
      </trkpt>
      <trkpt lat="48.35082" lon="7.28649">
        <ele>292</ele>
        <time>2020-04-05T16:53:07Z</time>
      </trkpt>
      <trkpt lat="48.35066" lon="7.28784">
        <ele>291</ele>
        <time>2020-04-05T16:53:24Z</time>
      </trkpt>
      <trkpt lat="48.35054" lon="7.28846">
        <ele>291</ele>
        <time>2020-04-05T16:53:31Z</time>
      </trkpt>
      <trkpt lat="48.35047" lon="7.28866">
        <ele>290</ele>
        <time>2020-04-05T16:53:34Z</time>
      </trkpt>
      <trkpt lat="48.35024" lon="7.28924">
        <ele>288</ele>
        <time>2020-04-05T16:53:42Z</time>
      </trkpt>
      <trkpt lat="48.35007" lon="7.2897">
        <ele>287</ele>
        <time>2020-04-05T16:53:48Z</time>
      </trkpt>
      <trkpt lat="48.34976" lon="7.29065">
        <ele>284</ele>
        <time>2020-04-05T16:54:01Z</time>
      </trkpt>
      <trkpt lat="48.34951" lon="7.29138">
        <ele>281</ele>
        <time>2020-04-05T16:54:10Z</time>
      </trkpt>
      <trkpt lat="48.34948" lon="7.29148">
        <ele>281</ele>
        <time>2020-04-05T16:54:12Z</time>
      </trkpt>
      <trkpt lat="48.34924" lon="7.29218">
        <ele>281</ele>
        <time>2020-04-05T16:54:21Z</time>
      </trkpt>
      <trkpt lat="48.34912" lon="7.29255">
        <ele>282</ele>
        <time>2020-04-05T16:54:26Z</time>
      </trkpt>
      <trkpt lat="48.34908" lon="7.2927">
        <ele>283</ele>
        <time>2020-04-05T16:54:28Z</time>
      </trkpt>
      <trkpt lat="48.34899" lon="7.29294">
        <ele>284</ele>
        <time>2020-04-05T16:54:31Z</time>
      </trkpt>
      <trkpt lat="48.34895" lon="7.29297">
        <ele>284</ele>
        <time>2020-04-05T16:54:32Z</time>
      </trkpt>
      <trkpt lat="48.34893" lon="7.29301">
        <ele>284</ele>
        <time>2020-04-05T16:54:32Z</time>
      </trkpt>
      <trkpt lat="48.34892" lon="7.29307">
        <ele>284</ele>
        <time>2020-04-05T16:54:33Z</time>
      </trkpt>
      <trkpt lat="48.34885" lon="7.29316">
        <ele>284</ele>
        <time>2020-04-05T16:54:35Z</time>
      </trkpt>
      <trkpt lat="48.34882" lon="7.29331">
        <ele>285</ele>
        <time>2020-04-05T16:54:37Z</time>
      </trkpt>
      <trkpt lat="48.34864" lon="7.29371">
        <ele>285</ele>
        <time>2020-04-05T16:54:42Z</time>
      </trkpt>
      <trkpt lat="48.34852" lon="7.29406">
        <ele>285</ele>
        <time>2020-04-05T16:54:47Z</time>
      </trkpt>
      <trkpt lat="48.34843" lon="7.29432">
        <ele>284</ele>
        <time>2020-04-05T16:54:51Z</time>
      </trkpt>
      <trkpt lat="48.34829" lon="7.2949">
        <ele>284</ele>
        <time>2020-04-05T16:54:58Z</time>
      </trkpt>
      <trkpt lat="48.34779" lon="7.29735">
        <ele>283</ele>
        <time>2020-04-05T16:55:28Z</time>
      </trkpt>
      <trkpt lat="48.34754" lon="7.29811">
        <ele>278</ele>
        <time>2020-04-05T16:55:38Z</time>
      </trkpt>
      <trkpt lat="48.34733" lon="7.29871">
        <ele>278</ele>
        <time>2020-04-05T16:55:46Z</time>
      </trkpt>
      <trkpt lat="48.34726" lon="7.29888">
        <ele>279</ele>
        <time>2020-04-05T16:55:49Z</time>
      </trkpt>
      <trkpt lat="48.347" lon="7.29969">
        <ele>281</ele>
        <time>2020-04-05T16:55:59Z</time>
      </trkpt>
      <trkpt lat="48.34674" lon="7.30045">
        <ele>280</ele>
        <time>2020-04-05T16:56:09Z</time>
      </trkpt>
      <trkpt lat="48.34608" lon="7.30242">
        <ele>278</ele>
        <time>2020-04-05T16:56:35Z</time>
      </trkpt>
      <trkpt lat="48.34599" lon="7.30264">
        <ele>278</ele>
        <time>2020-04-05T16:56:38Z</time>
      </trkpt>
      <trkpt lat="48.34583" lon="7.3029">
        <ele>276</ele>
        <time>2020-04-05T16:56:43Z</time>
      </trkpt>
      <trkpt lat="48.34449" lon="7.30474">
        <ele>271</ele>
        <time>2020-04-05T16:57:15Z</time>
      </trkpt>
      <trkpt lat="48.34445" lon="7.3048">
        <ele>270</ele>
        <time>2020-04-05T16:57:16Z</time>
      </trkpt>
      <trkpt lat="48.34435" lon="7.30493">
        <ele>270</ele>
        <time>2020-04-05T16:57:18Z</time>
      </trkpt>
      <trkpt lat="48.3443" lon="7.30497">
        <ele>269</ele>
        <time>2020-04-05T16:57:19Z</time>
      </trkpt>
      <trkpt lat="48.34424" lon="7.305">
        <ele>269</ele>
        <time>2020-04-05T16:57:20Z</time>
      </trkpt>
      <trkpt lat="48.34419" lon="7.30503">
        <ele>268</ele>
        <time>2020-04-05T16:57:21Z</time>
      </trkpt>
      <trkpt lat="48.34415" lon="7.30511">
        <ele>268</ele>
        <time>2020-04-05T16:57:23Z</time>
      </trkpt>
      <trkpt lat="48.34399" lon="7.30544">
        <ele>268</ele>
        <time>2020-04-05T16:57:27Z</time>
      </trkpt>
      <trkpt lat="48.34388" lon="7.30565">
        <ele>267</ele>
        <time>2020-04-05T16:57:31Z</time>
      </trkpt>
      <trkpt lat="48.3436" lon="7.30617">
        <ele>266</ele>
        <time>2020-04-05T16:57:38Z</time>
      </trkpt>
      <trkpt lat="48.34302" lon="7.30717">
        <ele>264</ele>
        <time>2020-04-05T16:57:54Z</time>
      </trkpt>
      <trkpt lat="48.34294" lon="7.3073">
        <ele>264</ele>
        <time>2020-04-05T16:57:56Z</time>
      </trkpt>
      <trkpt lat="48.34284" lon="7.30747">
        <ele>263</ele>
        <time>2020-04-05T16:57:59Z</time>
      </trkpt>
      <trkpt lat="48.3428" lon="7.30753">
        <ele>263</ele>
        <time>2020-04-05T16:58:00Z</time>
      </trkpt>
      <trkpt lat="48.3426" lon="7.30781">
        <ele>264</ele>
        <time>2020-04-05T16:58:05Z</time>
      </trkpt>
      <trkpt lat="48.34255" lon="7.30789">
        <ele>264</ele>
        <time>2020-04-05T16:58:06Z</time>
      </trkpt>
      <trkpt lat="48.34248" lon="7.30798">
        <ele>264</ele>
        <time>2020-04-05T16:58:08Z</time>
      </trkpt>
      <trkpt lat="48.34241" lon="7.30804">
        <ele>264</ele>
        <time>2020-04-05T16:58:09Z</time>
      </trkpt>
      <trkpt lat="48.34215" lon="7.30829">
        <ele>264</ele>
        <time>2020-04-05T16:58:15Z</time>
      </trkpt>
      <trkpt lat="48.34209" lon="7.30835">
        <ele>264</ele>
        <time>2020-04-05T16:58:16Z</time>
      </trkpt>
      <trkpt lat="48.34203" lon="7.30841">
        <ele>263</ele>
        <time>2020-04-05T16:58:17Z</time>
      </trkpt>
      <trkpt lat="48.34197" lon="7.30848">
        <ele>263</ele>
        <time>2020-04-05T16:58:19Z</time>
      </trkpt>
      <trkpt lat="48.34186" lon="7.30858">
        <ele>263</ele>
        <time>2020-04-05T16:58:21Z</time>
      </trkpt>
      <trkpt lat="48.34173" lon="7.30873">
        <ele>262</ele>
        <time>2020-04-05T16:58:24Z</time>
      </trkpt>
      <trkpt lat="48.3417" lon="7.30876">
        <ele>262</ele>
        <time>2020-04-05T16:58:24Z</time>
      </trkpt>
      <trkpt lat="48.34162" lon="7.30887">
        <ele>261</ele>
        <time>2020-04-05T16:58:26Z</time>
      </trkpt>
      <trkpt lat="48.3415" lon="7.30909">
        <ele>261</ele>
        <time>2020-04-05T16:58:30Z</time>
      </trkpt>
      <trkpt lat="48.34111" lon="7.31021">
        <ele>259</ele>
        <time>2020-04-05T16:58:45Z</time>
      </trkpt>
      <trkpt lat="48.34106" lon="7.31042">
        <ele>259</ele>
        <time>2020-04-05T16:58:47Z</time>
      </trkpt>
      <trkpt lat="48.34101" lon="7.31058">
        <ele>258</ele>
        <time>2020-04-05T16:58:49Z</time>
      </trkpt>
      <trkpt lat="48.34098" lon="7.31056">
        <ele>258</ele>
        <time>2020-04-05T16:58:50Z</time>
      </trkpt>
      <trkpt lat="48.34092" lon="7.31058">
        <ele>258</ele>
        <time>2020-04-05T16:58:51Z</time>
      </trkpt>
      <trkpt lat="48.3409" lon="7.31061">
        <ele>258</ele>
        <time>2020-04-05T16:58:52Z</time>
      </trkpt>
      <trkpt lat="48.34089" lon="7.31065">
        <ele>258</ele>
        <time>2020-04-05T16:58:52Z</time>
      </trkpt>
      <trkpt lat="48.34089" lon="7.31074">
        <ele>258</ele>
        <time>2020-04-05T16:58:53Z</time>
      </trkpt>
      <trkpt lat="48.34091" lon="7.31078">
        <ele>258</ele>
        <time>2020-04-05T16:58:54Z</time>
      </trkpt>
      <trkpt lat="48.34095" lon="7.31081">
        <ele>258</ele>
        <time>2020-04-05T16:58:55Z</time>
      </trkpt>
      <trkpt lat="48.34086" lon="7.31112">
        <ele>257</ele>
        <time>2020-04-05T16:58:59Z</time>
      </trkpt>
      <trkpt lat="48.3405" lon="7.31401">
        <ele>260</ele>
        <time>2020-04-05T16:59:33Z</time>
      </trkpt>
      <trkpt lat="48.34042" lon="7.31561">
        <ele>265</ele>
        <time>2020-04-05T16:59:52Z</time>
      </trkpt>
      <trkpt lat="48.34039" lon="7.31603">
        <ele>266</ele>
        <time>2020-04-05T16:59:57Z</time>
      </trkpt>
      <trkpt lat="48.34034" lon="7.31643">
        <ele>266</ele>
        <time>2020-04-05T17:00:02Z</time>
      </trkpt>
      <trkpt lat="48.34025" lon="7.31692">
        <ele>266</ele>
        <time>2020-04-05T17:00:08Z</time>
      </trkpt>
      <trkpt lat="48.34013" lon="7.31727">
        <ele>264</ele>
        <time>2020-04-05T17:00:13Z</time>
      </trkpt>
      <trkpt lat="48.34" lon="7.31756">
        <ele>262</ele>
        <time>2020-04-05T17:00:17Z</time>
      </trkpt>
      <trkpt lat="48.33939" lon="7.31869">
        <ele>264</ele>
        <time>2020-04-05T17:00:34Z</time>
      </trkpt>
      <trkpt lat="48.33922" lon="7.319">
        <ele>263</ele>
        <time>2020-04-05T17:00:39Z</time>
      </trkpt>
      <trkpt lat="48.33894" lon="7.31951">
        <ele>263</ele>
        <time>2020-04-05T17:00:47Z</time>
      </trkpt>
      <trkpt lat="48.33883" lon="7.31967">
        <ele>262</ele>
        <time>2020-04-05T17:00:49Z</time>
      </trkpt>
      <trkpt lat="48.33874" lon="7.31983">
        <ele>262</ele>
        <time>2020-04-05T17:00:52Z</time>
      </trkpt>
      <trkpt lat="48.33857" lon="7.32013">
        <ele>260</ele>
        <time>2020-04-05T17:00:57Z</time>
      </trkpt>
      <trkpt lat="48.33832" lon="7.32061">
        <ele>255</ele>
        <time>2020-04-05T17:01:04Z</time>
      </trkpt>
      <trkpt lat="48.33818" lon="7.3209">
        <ele>254</ele>
        <time>2020-04-05T17:01:08Z</time>
      </trkpt>
      <trkpt lat="48.33782" lon="7.32156">
        <ele>253</ele>
        <time>2020-04-05T17:01:18Z</time>
      </trkpt>
      <trkpt lat="48.33756" lon="7.32205">
        <ele>251</ele>
        <time>2020-04-05T17:01:25Z</time>
      </trkpt>
      <trkpt lat="48.33735" lon="7.32256">
        <ele>250</ele>
        <time>2020-04-05T17:01:33Z</time>
      </trkpt>
      <trkpt lat="48.33708" lon="7.32325">
        <ele>252</ele>
        <time>2020-04-05T17:01:42Z</time>
      </trkpt>
      <trkpt lat="48.33693" lon="7.32371">
        <ele>252</ele>
        <time>2020-04-05T17:01:48Z</time>
      </trkpt>
      <trkpt lat="48.33684" lon="7.32392">
        <ele>252</ele>
        <time>2020-04-05T17:01:51Z</time>
      </trkpt>
      <trkpt lat="48.33669" lon="7.32447">
        <ele>252</ele>
        <time>2020-04-05T17:01:58Z</time>
      </trkpt>
      <trkpt lat="48.33665" lon="7.32455">
        <ele>252</ele>
        <time>2020-04-05T17:01:59Z</time>
      </trkpt>
      <trkpt lat="48.33658" lon="7.3246">
        <ele>252</ele>
        <time>2020-04-05T17:02:01Z</time>
      </trkpt>
      <trkpt lat="48.33655" lon="7.3246">
        <ele>252</ele>
        <time>2020-04-05T17:02:01Z</time>
      </trkpt>
      <trkpt lat="48.33653" lon="7.3246">
        <ele>252</ele>
        <time>2020-04-05T17:02:02Z</time>
      </trkpt>
      <trkpt lat="48.33648" lon="7.32462">
        <ele>252</ele>
        <time>2020-04-05T17:02:02Z</time>
      </trkpt>
      <trkpt lat="48.33645" lon="7.32466">
        <ele>252</ele>
        <time>2020-04-05T17:02:03Z</time>
      </trkpt>
      <trkpt lat="48.33642" lon="7.32471">
        <ele>252</ele>
        <time>2020-04-05T17:02:04Z</time>
      </trkpt>
      <trkpt lat="48.33641" lon="7.32478">
        <ele>252</ele>
        <time>2020-04-05T17:02:05Z</time>
      </trkpt>
      <trkpt lat="48.33642" lon="7.32493">
        <ele>252</ele>
        <time>2020-04-05T17:02:07Z</time>
      </trkpt>
      <trkpt lat="48.33646" lon="7.32499">
        <ele>252</ele>
        <time>2020-04-05T17:02:08Z</time>
      </trkpt>
      <trkpt lat="48.33647" lon="7.32514">
        <ele>253</ele>
        <time>2020-04-05T17:02:09Z</time>
      </trkpt>
      <trkpt lat="48.33647" lon="7.32533">
        <ele>253</ele>
        <time>2020-04-05T17:02:12Z</time>
      </trkpt>
      <trkpt lat="48.33633" lon="7.32581">
        <ele>254</ele>
        <time>2020-04-05T17:02:18Z</time>
      </trkpt>
      <trkpt lat="48.3362" lon="7.32609">
        <ele>255</ele>
        <time>2020-04-05T17:02:22Z</time>
      </trkpt>
      <trkpt lat="48.33602" lon="7.32637">
        <ele>255</ele>
        <time>2020-04-05T17:02:27Z</time>
      </trkpt>
      <trkpt lat="48.33581" lon="7.32667">
        <ele>255</ele>
        <time>2020-04-05T17:02:32Z</time>
      </trkpt>
      <trkpt lat="48.33569" lon="7.32676">
        <ele>255</ele>
        <time>2020-04-05T17:02:34Z</time>
      </trkpt>
      <trkpt lat="48.33543" lon="7.32689">
        <ele>256</ele>
        <time>2020-04-05T17:02:39Z</time>
      </trkpt>
      <trkpt lat="48.33467" lon="7.32721">
        <ele>254</ele>
        <time>2020-04-05T17:02:53Z</time>
      </trkpt>
      <trkpt lat="48.33431" lon="7.32743">
        <ele>252</ele>
        <time>2020-04-05T17:03:00Z</time>
      </trkpt>
      <trkpt lat="48.33419" lon="7.32752">
        <ele>252</ele>
        <time>2020-04-05T17:03:02Z</time>
      </trkpt>
      <trkpt lat="48.33405" lon="7.32764">
        <ele>252</ele>
        <time>2020-04-05T17:03:05Z</time>
      </trkpt>
      <trkpt lat="48.33393" lon="7.32777">
        <ele>253</ele>
        <time>2020-04-05T17:03:08Z</time>
      </trkpt>
      <trkpt lat="48.33377" lon="7.32795">
        <ele>254</ele>
        <time>2020-04-05T17:03:11Z</time>
      </trkpt>
      <trkpt lat="48.33359" lon="7.32821">
        <ele>254</ele>
        <time>2020-04-05T17:03:16Z</time>
      </trkpt>
      <trkpt lat="48.33277" lon="7.32959">
        <ele>252</ele>
        <time>2020-04-05T17:03:38Z</time>
      </trkpt>
      <trkpt lat="48.33266" lon="7.32975">
        <ele>252</ele>
        <time>2020-04-05T17:03:40Z</time>
      </trkpt>
      <trkpt lat="48.33255" lon="7.32989">
        <ele>251</ele>
        <time>2020-04-05T17:03:43Z</time>
      </trkpt>
      <trkpt lat="48.33227" lon="7.33016">
        <ele>252</ele>
        <time>2020-04-05T17:03:49Z</time>
      </trkpt>
      <trkpt lat="48.33211" lon="7.33028">
        <ele>252</ele>
        <time>2020-04-05T17:03:52Z</time>
      </trkpt>
      <trkpt lat="48.33193" lon="7.33037">
        <ele>252</ele>
        <time>2020-04-05T17:03:55Z</time>
      </trkpt>
      <trkpt lat="48.33181" lon="7.33039">
        <ele>252</ele>
        <time>2020-04-05T17:03:58Z</time>
      </trkpt>
      <trkpt lat="48.33156" lon="7.33049">
        <ele>253</ele>
        <time>2020-04-05T17:04:02Z</time>
      </trkpt>
      <trkpt lat="48.33122" lon="7.3306">
        <ele>252</ele>
        <time>2020-04-05T17:04:08Z</time>
      </trkpt>
      <trkpt lat="48.33084" lon="7.3307">
        <ele>251</ele>
        <time>2020-04-05T17:04:15Z</time>
      </trkpt>
      <trkpt lat="48.3304" lon="7.3308">
        <ele>251</ele>
        <time>2020-04-05T17:04:23Z</time>
      </trkpt>
      <trkpt lat="48.33025" lon="7.33084">
        <ele>251</ele>
        <time>2020-04-05T17:04:26Z</time>
      </trkpt>
      <trkpt lat="48.32992" lon="7.33087">
        <ele>250</ele>
        <time>2020-04-05T17:04:32Z</time>
      </trkpt>
      <trkpt lat="48.32949" lon="7.33091">
        <ele>249</ele>
        <time>2020-04-05T17:04:39Z</time>
      </trkpt>
      <trkpt lat="48.32908" lon="7.33099">
        <ele>248</ele>
        <time>2020-04-05T17:04:47Z</time>
      </trkpt>
      <trkpt lat="48.32883" lon="7.33108">
        <ele>247</ele>
        <time>2020-04-05T17:04:51Z</time>
      </trkpt>
      <trkpt lat="48.32864" lon="7.3312">
        <ele>247</ele>
        <time>2020-04-05T17:04:55Z</time>
      </trkpt>
      <trkpt lat="48.32843" lon="7.33138">
        <ele>247</ele>
        <time>2020-04-05T17:04:59Z</time>
      </trkpt>
      <trkpt lat="48.32822" lon="7.33159">
        <ele>246</ele>
        <time>2020-04-05T17:05:04Z</time>
      </trkpt>
      <trkpt lat="48.32666" lon="7.33336">
        <ele>240</ele>
        <time>2020-04-05T17:05:39Z</time>
      </trkpt>
      <trkpt lat="48.32584" lon="7.33425">
        <ele>239</ele>
        <time>2020-04-05T17:05:57Z</time>
      </trkpt>
      <trkpt lat="48.32538" lon="7.33478">
        <ele>239</ele>
        <time>2020-04-05T17:06:07Z</time>
      </trkpt>
      <trkpt lat="48.32514" lon="7.33508">
        <ele>239</ele>
        <time>2020-04-05T17:06:12Z</time>
      </trkpt>
      <trkpt lat="48.32499" lon="7.33531">
        <ele>239</ele>
        <time>2020-04-05T17:06:16Z</time>
      </trkpt>
      <trkpt lat="48.32487" lon="7.33555">
        <ele>239</ele>
        <time>2020-04-05T17:06:20Z</time>
      </trkpt>
      <trkpt lat="48.32472" lon="7.33591">
        <ele>239</ele>
        <time>2020-04-05T17:06:25Z</time>
      </trkpt>
      <trkpt lat="48.32455" lon="7.33648">
        <ele>240</ele>
        <time>2020-04-05T17:06:32Z</time>
      </trkpt>
      <trkpt lat="48.32437" lon="7.33732">
        <ele>239</ele>
        <time>2020-04-05T17:06:43Z</time>
      </trkpt>
      <trkpt lat="48.32417" lon="7.33818">
        <ele>236</ele>
        <time>2020-04-05T17:06:53Z</time>
      </trkpt>
      <trkpt lat="48.32406" lon="7.33861">
        <ele>237</ele>
        <time>2020-04-05T17:06:59Z</time>
      </trkpt>
      <trkpt lat="48.32393" lon="7.33907">
        <ele>239</ele>
        <time>2020-04-05T17:07:05Z</time>
      </trkpt>
      <trkpt lat="48.3238" lon="7.3395">
        <ele>240</ele>
        <time>2020-04-05T17:07:10Z</time>
      </trkpt>
      <trkpt lat="48.32204" lon="7.34439">
        <ele>234</ele>
        <time>2020-04-05T17:08:16Z</time>
      </trkpt>
      <trkpt lat="48.32168" lon="7.34541">
        <ele>233</ele>
        <time>2020-04-05T17:08:30Z</time>
      </trkpt>
      <trkpt lat="48.32154" lon="7.34568">
        <ele>232</ele>
        <time>2020-04-05T17:08:34Z</time>
      </trkpt>
      <trkpt lat="48.32144" lon="7.34586">
        <ele>232</ele>
        <time>2020-04-05T17:08:37Z</time>
      </trkpt>
      <trkpt lat="48.32132" lon="7.34607">
        <ele>231</ele>
        <time>2020-04-05T17:08:40Z</time>
      </trkpt>
      <trkpt lat="48.32126" lon="7.34618">
        <ele>231</ele>
        <time>2020-04-05T17:08:42Z</time>
      </trkpt>
      <trkpt lat="48.32115" lon="7.34635">
        <ele>231</ele>
        <time>2020-04-05T17:08:44Z</time>
      </trkpt>
      <trkpt lat="48.32089" lon="7.34675">
        <ele>231</ele>
        <time>2020-04-05T17:08:51Z</time>
      </trkpt>
      <trkpt lat="48.32043" lon="7.34733">
        <ele>230</ele>
        <time>2020-04-05T17:09:02Z</time>
      </trkpt>
      <trkpt lat="48.3199" lon="7.34801">
        <ele>231</ele>
        <time>2020-04-05T17:09:14Z</time>
      </trkpt>
      <trkpt lat="48.31969" lon="7.34829">
        <ele>231</ele>
        <time>2020-04-05T17:09:19Z</time>
      </trkpt>
      <trkpt lat="48.31959" lon="7.34841">
        <ele>231</ele>
        <time>2020-04-05T17:09:21Z</time>
      </trkpt>
      <trkpt lat="48.31946" lon="7.34861">
        <ele>231</ele>
        <time>2020-04-05T17:09:25Z</time>
      </trkpt>
      <trkpt lat="48.31936" lon="7.34867">
        <ele>231</ele>
        <time>2020-04-05T17:09:27Z</time>
      </trkpt>
      <trkpt lat="48.31929" lon="7.34865">
        <ele>231</ele>
        <time>2020-04-05T17:09:28Z</time>
      </trkpt>
      <trkpt lat="48.31921" lon="7.34868">
        <ele>231</ele>
        <time>2020-04-05T17:09:29Z</time>
      </trkpt>
      <trkpt lat="48.31915" lon="7.34875">
        <ele>230</ele>
        <time>2020-04-05T17:09:31Z</time>
      </trkpt>
      <trkpt lat="48.31902" lon="7.34878">
        <ele>230</ele>
        <time>2020-04-05T17:09:33Z</time>
      </trkpt>
      <trkpt lat="48.31886" lon="7.34884">
        <ele>230</ele>
        <time>2020-04-05T17:09:36Z</time>
      </trkpt>
      <trkpt lat="48.31843" lon="7.34897">
        <ele>229</ele>
        <time>2020-04-05T17:09:44Z</time>
      </trkpt>
      <trkpt lat="48.31792" lon="7.34889">
        <ele>228</ele>
        <time>2020-04-05T17:09:53Z</time>
      </trkpt>
      <trkpt lat="48.31672" lon="7.34865">
        <ele>228</ele>
        <time>2020-04-05T17:10:14Z</time>
      </trkpt>
      <trkpt lat="48.31638" lon="7.34863">
        <ele>229</ele>
        <time>2020-04-05T17:10:20Z</time>
      </trkpt>
      <trkpt lat="48.31602" lon="7.34875">
        <ele>230</ele>
        <time>2020-04-05T17:10:27Z</time>
      </trkpt>
      <trkpt lat="48.31534" lon="7.34922">
        <ele>232</ele>
        <time>2020-04-05T17:10:40Z</time>
      </trkpt>
      <trkpt lat="48.31531" lon="7.34915">
        <ele>233</ele>
        <time>2020-04-05T17:10:41Z</time>
      </trkpt>
      <trkpt lat="48.31533" lon="7.34892">
        <ele>234</ele>
        <time>2020-04-05T17:10:44Z</time>
      </trkpt>
      <trkpt lat="48.31543" lon="7.34841">
        <ele>236</ele>
        <time>2020-04-05T17:10:50Z</time>
      </trkpt>
      <trkpt lat="48.31545" lon="7.34817">
        <ele>236</ele>
        <time>2020-04-05T17:10:53Z</time>
      </trkpt>
      <trkpt lat="48.31542" lon="7.34791">
        <ele>236</ele>
        <time>2020-04-05T17:10:56Z</time>
      </trkpt>
      <trkpt lat="48.31535" lon="7.34771">
        <ele>236</ele>
        <time>2020-04-05T17:10:59Z</time>
      </trkpt>
      <trkpt lat="48.31522" lon="7.34755">
        <ele>237</ele>
        <time>2020-04-05T17:11:02Z</time>
      </trkpt>
      <trkpt lat="48.31471" lon="7.34725">
        <ele>243</ele>
        <time>2020-04-05T17:11:12Z</time>
      </trkpt>
      <trkpt lat="48.31427" lon="7.34693">
        <ele>249</ele>
        <time>2020-04-05T17:11:20Z</time>
      </trkpt>
      <trkpt lat="48.31361" lon="7.34637">
        <ele>253</ele>
        <time>2020-04-05T17:11:34Z</time>
      </trkpt>
      <trkpt lat="48.31327" lon="7.34601">
        <ele>254</ele>
        <time>2020-04-05T17:11:41Z</time>
      </trkpt>
      <trkpt lat="48.31295" lon="7.3455">
        <ele>256</ele>
        <time>2020-04-05T17:11:50Z</time>
      </trkpt>
      <trkpt lat="48.31217" lon="7.34399">
        <ele>262</ele>
        <time>2020-04-05T17:12:12Z</time>
      </trkpt>
      <trkpt lat="48.31134" lon="7.34253">
        <ele>267</ele>
        <time>2020-04-05T17:12:35Z</time>
      </trkpt>
      <trkpt lat="48.31116" lon="7.34216">
        <ele>269</ele>
        <time>2020-04-05T17:12:40Z</time>
      </trkpt>
      <trkpt lat="48.311" lon="7.34193">
        <ele>271</ele>
        <time>2020-04-05T17:12:44Z</time>
      </trkpt>
      <trkpt lat="48.31079" lon="7.34177">
        <ele>273</ele>
        <time>2020-04-05T17:12:49Z</time>
      </trkpt>
      <trkpt lat="48.31048" lon="7.3416">
        <ele>275</ele>
        <time>2020-04-05T17:12:54Z</time>
      </trkpt>
      <trkpt lat="48.30997" lon="7.34115">
        <ele>278</ele>
        <time>2020-04-05T17:13:05Z</time>
      </trkpt>
      <trkpt lat="48.3098" lon="7.34108">
        <ele>279</ele>
        <time>2020-04-05T17:13:08Z</time>
      </trkpt>
      <trkpt lat="48.30931" lon="7.34105">
        <ele>281</ele>
        <time>2020-04-05T17:13:17Z</time>
      </trkpt>
      <trkpt lat="48.30914" lon="7.34101">
        <ele>282</ele>
        <time>2020-04-05T17:13:20Z</time>
      </trkpt>
      <trkpt lat="48.30889" lon="7.34088">
        <ele>284</ele>
        <time>2020-04-05T17:13:25Z</time>
      </trkpt>
      <trkpt lat="48.30857" lon="7.34067">
        <ele>287</ele>
        <time>2020-04-05T17:13:31Z</time>
      </trkpt>
      <trkpt lat="48.30853" lon="7.34064">
        <ele>288</ele>
        <time>2020-04-05T17:13:32Z</time>
      </trkpt>
      <trkpt lat="48.30857" lon="7.34067">
        <ele>287</ele>
        <time>2020-04-05T17:13:32Z</time>
      </trkpt>
      <trkpt lat="48.30854" lon="7.34054">
        <ele>289</ele>
        <time>2020-04-05T17:13:34Z</time>
      </trkpt>
      <trkpt lat="48.30855" lon="7.34048">
        <ele>289</ele>
        <time>2020-04-05T17:13:35Z</time>
      </trkpt>
      <trkpt lat="48.30875" lon="7.34037">
        <ele>290</ele>
        <time>2020-04-05T17:13:39Z</time>
      </trkpt>
      <trkpt lat="48.30906" lon="7.34005">
        <ele>292</ele>
        <time>2020-04-05T17:13:45Z</time>
      </trkpt>
      <trkpt lat="48.30926" lon="7.33969">
        <ele>293</ele>
        <time>2020-04-05T17:13:51Z</time>
      </trkpt>
      <trkpt lat="48.30947" lon="7.33912">
        <ele>294</ele>
        <time>2020-04-05T17:13:58Z</time>
      </trkpt>
      <trkpt lat="48.30955" lon="7.3388">
        <ele>294</ele>
        <time>2020-04-05T17:14:03Z</time>
      </trkpt>
      <trkpt lat="48.30977" lon="7.33761">
        <ele>296</ele>
        <time>2020-04-05T17:14:17Z</time>
      </trkpt>
      <trkpt lat="48.30982" lon="7.33715">
        <ele>296</ele>
        <time>2020-04-05T17:14:23Z</time>
      </trkpt>
      <trkpt lat="48.30984" lon="7.33667">
        <ele>297</ele>
        <time>2020-04-05T17:14:28Z</time>
      </trkpt>
      <trkpt lat="48.30985" lon="7.33659">
        <ele>297</ele>
        <time>2020-04-05T17:14:29Z</time>
      </trkpt>
      <trkpt lat="48.3099" lon="7.33643">
        <ele>297</ele>
        <time>2020-04-05T17:14:31Z</time>
      </trkpt>
      <trkpt lat="48.30997" lon="7.33635">
        <ele>297</ele>
        <time>2020-04-05T17:14:33Z</time>
      </trkpt>
      <trkpt lat="48.31013" lon="7.33628">
        <ele>297</ele>
        <time>2020-04-05T17:14:36Z</time>
      </trkpt>
      <trkpt lat="48.31048" lon="7.33632">
        <ele>297</ele>
        <time>2020-04-05T17:14:42Z</time>
      </trkpt>
      <trkpt lat="48.31061" lon="7.33629">
        <ele>298</ele>
        <time>2020-04-05T17:14:45Z</time>
      </trkpt>
      <trkpt lat="48.31068" lon="7.33626">
        <ele>298</ele>
        <time>2020-04-05T17:14:46Z</time>
      </trkpt>
      <trkpt lat="48.31075" lon="7.3362">
        <ele>299</ele>
        <time>2020-04-05T17:14:47Z</time>
      </trkpt>
      <trkpt lat="48.31179" lon="7.33506">
        <ele>308</ele>
        <time>2020-04-05T17:15:10Z</time>
      </trkpt>
      <trkpt lat="48.31189" lon="7.33501">
        <ele>308</ele>
        <time>2020-04-05T17:15:12Z</time>
      </trkpt>
      <trkpt lat="48.31202" lon="7.33498">
        <ele>308</ele>
        <time>2020-04-05T17:15:14Z</time>
      </trkpt>
      <trkpt lat="48.31216" lon="7.33499">
        <ele>308</ele>
        <time>2020-04-05T17:15:17Z</time>
      </trkpt>
      <trkpt lat="48.31232" lon="7.33505">
        <ele>308</ele>
        <time>2020-04-05T17:15:20Z</time>
      </trkpt>
      <trkpt lat="48.31271" lon="7.33526">
        <ele>305</ele>
        <time>2020-04-05T17:15:27Z</time>
      </trkpt>
      <trkpt lat="48.31278" lon="7.33528">
        <ele>305</ele>
        <time>2020-04-05T17:15:28Z</time>
      </trkpt>
      <trkpt lat="48.31287" lon="7.33527">
        <ele>304</ele>
        <time>2020-04-05T17:15:30Z</time>
      </trkpt>
      <trkpt lat="48.31296" lon="7.3352">
        <ele>303</ele>
        <time>2020-04-05T17:15:32Z</time>
      </trkpt>
      <trkpt lat="48.31304" lon="7.33507">
        <ele>302</ele>
        <time>2020-04-05T17:15:34Z</time>
      </trkpt>
      <trkpt lat="48.31313" lon="7.33477">
        <ele>301</ele>
        <time>2020-04-05T17:15:38Z</time>
      </trkpt>
      <trkpt lat="48.31315" lon="7.33465">
        <ele>301</ele>
        <time>2020-04-05T17:15:39Z</time>
      </trkpt>
      <trkpt lat="48.31322" lon="7.33388">
        <ele>299</ele>
        <time>2020-04-05T17:15:48Z</time>
      </trkpt>
      <trkpt lat="48.31324" lon="7.33343">
        <ele>298</ele>
        <time>2020-04-05T17:15:54Z</time>
      </trkpt>
      <trkpt lat="48.31323" lon="7.33235">
        <ele>298</ele>
        <time>2020-04-05T17:16:07Z</time>
      </trkpt>
      <trkpt lat="48.31324" lon="7.33207">
        <ele>297</ele>
        <time>2020-04-05T17:16:10Z</time>
      </trkpt>
      <trkpt lat="48.31328" lon="7.33195">
        <ele>296</ele>
        <time>2020-04-05T17:16:11Z</time>
      </trkpt>
      <trkpt lat="48.31357" lon="7.33133">
        <ele>292</ele>
        <time>2020-04-05T17:16:20Z</time>
      </trkpt>
      <trkpt lat="48.31365" lon="7.33103">
        <ele>291</ele>
        <time>2020-04-05T17:16:24Z</time>
      </trkpt>
      <trkpt lat="48.31369" lon="7.33079">
        <ele>290</ele>
        <time>2020-04-05T17:16:27Z</time>
      </trkpt>
      <trkpt lat="48.31375" lon="7.33003">
        <ele>289</ele>
        <time>2020-04-05T17:16:36Z</time>
      </trkpt>
      <trkpt lat="48.31383" lon="7.32974">
        <ele>289</ele>
        <time>2020-04-05T17:16:40Z</time>
      </trkpt>
      <trkpt lat="48.31427" lon="7.32877">
        <ele>290</ele>
        <time>2020-04-05T17:16:54Z</time>
      </trkpt>
      <trkpt lat="48.3149" lon="7.32799">
        <ele>288</ele>
        <time>2020-04-05T17:17:08Z</time>
      </trkpt>
      <trkpt lat="48.31508" lon="7.32779">
        <ele>288</ele>
        <time>2020-04-05T17:17:12Z</time>
      </trkpt>
      <trkpt lat="48.31572" lon="7.32739">
        <ele>289</ele>
        <time>2020-04-05T17:17:25Z</time>
      </trkpt>
      <trkpt lat="48.31603" lon="7.32717">
        <ele>291</ele>
        <time>2020-04-05T17:17:31Z</time>
      </trkpt>
      <trkpt lat="48.31617" lon="7.32705">
        <ele>293</ele>
        <time>2020-04-05T17:17:34Z</time>
      </trkpt>
      <trkpt lat="48.31631" lon="7.32684">
        <ele>294</ele>
        <time>2020-04-05T17:17:37Z</time>
      </trkpt>
      <trkpt lat="48.31641" lon="7.32666">
        <ele>295</ele>
        <time>2020-04-05T17:17:40Z</time>
      </trkpt>
      <trkpt lat="48.31651" lon="7.32638">
        <ele>296</ele>
        <time>2020-04-05T17:17:44Z</time>
      </trkpt>
      <trkpt lat="48.31656" lon="7.32617">
        <ele>297</ele>
        <time>2020-04-05T17:17:46Z</time>
      </trkpt>
      <trkpt lat="48.31692" lon="7.32416">
        <ele>302</ele>
        <time>2020-04-05T17:18:11Z</time>
      </trkpt>
      <trkpt lat="48.31698" lon="7.32393">
        <ele>304</ele>
        <time>2020-04-05T17:18:14Z</time>
      </trkpt>
      <trkpt lat="48.31705" lon="7.32375">
        <ele>304</ele>
        <time>2020-04-05T17:18:16Z</time>
      </trkpt>
      <trkpt lat="48.31739" lon="7.32309">
        <ele>306</ele>
        <time>2020-04-05T17:18:26Z</time>
      </trkpt>
      <trkpt lat="48.31776" lon="7.32249">
        <ele>306</ele>
        <time>2020-04-05T17:18:36Z</time>
      </trkpt>
      <trkpt lat="48.31813" lon="7.32193">
        <ele>306</ele>
        <time>2020-04-05T17:18:45Z</time>
      </trkpt>
      <trkpt lat="48.31818" lon="7.32181">
        <ele>307</ele>
        <time>2020-04-05T17:18:47Z</time>
      </trkpt>
      <trkpt lat="48.31834" lon="7.32132">
        <ele>308</ele>
        <time>2020-04-05T17:18:53Z</time>
      </trkpt>
      <trkpt lat="48.31863" lon="7.32015">
        <ele>314</ele>
        <time>2020-04-05T17:19:08Z</time>
      </trkpt>
      <trkpt lat="48.31869" lon="7.32">
        <ele>314</ele>
        <time>2020-04-05T17:19:10Z</time>
      </trkpt>
      <trkpt lat="48.31874" lon="7.31993">
        <ele>315</ele>
        <time>2020-04-05T17:19:11Z</time>
      </trkpt>
      <trkpt lat="48.31881" lon="7.31987">
        <ele>315</ele>
        <time>2020-04-05T17:19:13Z</time>
      </trkpt>
      <trkpt lat="48.31884" lon="7.31985">
        <ele>315</ele>
        <time>2020-04-05T17:19:14Z</time>
      </trkpt>
      <trkpt lat="48.31892" lon="7.3198">
        <ele>315</ele>
        <time>2020-04-05T17:19:15Z</time>
      </trkpt>
      <trkpt lat="48.31932" lon="7.31962">
        <ele>315</ele>
        <time>2020-04-05T17:19:22Z</time>
      </trkpt>
      <trkpt lat="48.31991" lon="7.31934">
        <ele>317</ele>
        <time>2020-04-05T17:19:33Z</time>
      </trkpt>
      <trkpt lat="48.32021" lon="7.31908">
        <ele>318</ele>
        <time>2020-04-05T17:19:40Z</time>
      </trkpt>
      <trkpt lat="48.32054" lon="7.3187">
        <ele>317</ele>
        <time>2020-04-05T17:19:47Z</time>
      </trkpt>
      <trkpt lat="48.32065" lon="7.31855">
        <ele>317</ele>
        <time>2020-04-05T17:19:50Z</time>
      </trkpt>
      <trkpt lat="48.32077" lon="7.31839">
        <ele>317</ele>
        <time>2020-04-05T17:19:53Z</time>
      </trkpt>
      <trkpt lat="48.32086" lon="7.31826">
        <ele>317</ele>
        <time>2020-04-05T17:19:55Z</time>
      </trkpt>
      <trkpt lat="48.32102" lon="7.31804">
        <ele>317</ele>
        <time>2020-04-05T17:19:59Z</time>
      </trkpt>
      <trkpt lat="48.32179" lon="7.31685">
        <ele>319</ele>
        <time>2020-04-05T17:20:18Z</time>
      </trkpt>
      <trkpt lat="48.32195" lon="7.31666">
        <ele>319</ele>
        <time>2020-04-05T17:20:22Z</time>
      </trkpt>
      <trkpt lat="48.32203" lon="7.3166">
        <ele>320</ele>
        <time>2020-04-05T17:20:23Z</time>
      </trkpt>
      <trkpt lat="48.32209" lon="7.31659">
        <ele>319</ele>
        <time>2020-04-05T17:20:25Z</time>
      </trkpt>
      <trkpt lat="48.32214" lon="7.31658">
        <ele>319</ele>
        <time>2020-04-05T17:20:25Z</time>
      </trkpt>
      <trkpt lat="48.32232" lon="7.31658">
        <ele>318</ele>
        <time>2020-04-05T17:20:29Z</time>
      </trkpt>
      <trkpt lat="48.32302" lon="7.31641">
        <ele>317</ele>
        <time>2020-04-05T17:20:41Z</time>
      </trkpt>
      <trkpt lat="48.32381" lon="7.31616">
        <ele>317</ele>
        <time>2020-04-05T17:20:56Z</time>
      </trkpt>
      <trkpt lat="48.32393" lon="7.31614">
        <ele>316</ele>
        <time>2020-04-05T17:20:58Z</time>
      </trkpt>
      <trkpt lat="48.32498" lon="7.316">
        <ele>313</ele>
        <time>2020-04-05T17:21:17Z</time>
      </trkpt>
      <trkpt lat="48.32515" lon="7.31596">
        <ele>312</ele>
        <time>2020-04-05T17:21:20Z</time>
      </trkpt>
      <trkpt lat="48.32535" lon="7.31588">
        <ele>311</ele>
        <time>2020-04-05T17:21:23Z</time>
      </trkpt>
      <trkpt lat="48.32548" lon="7.31579">
        <ele>311</ele>
        <time>2020-04-05T17:21:26Z</time>
      </trkpt>
      <trkpt lat="48.32551" lon="7.31577">
        <ele>311</ele>
        <time>2020-04-05T17:21:26Z</time>
      </trkpt>
      <trkpt lat="48.32558" lon="7.3157">
        <ele>311</ele>
        <time>2020-04-05T17:21:28Z</time>
      </trkpt>
      <trkpt lat="48.32588" lon="7.3154">
        <ele>310</ele>
        <time>2020-04-05T17:21:34Z</time>
      </trkpt>
      <trkpt lat="48.32609" lon="7.31516">
        <ele>311</ele>
        <time>2020-04-05T17:21:39Z</time>
      </trkpt>
      <trkpt lat="48.32643" lon="7.3148">
        <ele>310</ele>
        <time>2020-04-05T17:21:46Z</time>
      </trkpt>
      <trkpt lat="48.32658" lon="7.31466">
        <ele>309</ele>
        <time>2020-04-05T17:21:50Z</time>
      </trkpt>
      <trkpt lat="48.32688" lon="7.31445">
        <ele>306</ele>
        <time>2020-04-05T17:21:55Z</time>
      </trkpt>
      <trkpt lat="48.32702" lon="7.31435">
        <ele>305</ele>
        <time>2020-04-05T17:21:58Z</time>
      </trkpt>
      <trkpt lat="48.32723" lon="7.31419">
        <ele>303</ele>
        <time>2020-04-05T17:22:02Z</time>
      </trkpt>
      <trkpt lat="48.32751" lon="7.31386">
        <ele>302</ele>
        <time>2020-04-05T17:22:09Z</time>
      </trkpt>
      <trkpt lat="48.32765" lon="7.31368">
        <ele>301</ele>
        <time>2020-04-05T17:22:12Z</time>
      </trkpt>
      <trkpt lat="48.32774" lon="7.31358">
        <ele>301</ele>
        <time>2020-04-05T17:22:14Z</time>
      </trkpt>
      <trkpt lat="48.32787" lon="7.31351">
        <ele>300</ele>
        <time>2020-04-05T17:22:16Z</time>
      </trkpt>
      <trkpt lat="48.32819" lon="7.31341">
        <ele>298</ele>
        <time>2020-04-05T17:22:22Z</time>
      </trkpt>
      <trkpt lat="48.32835" lon="7.31339">
        <ele>297</ele>
        <time>2020-04-05T17:22:25Z</time>
      </trkpt>
      <trkpt lat="48.32853" lon="7.31337">
        <ele>296</ele>
        <time>2020-04-05T17:22:28Z</time>
      </trkpt>
      <trkpt lat="48.32877" lon="7.31343">
        <ele>295</ele>
        <time>2020-04-05T17:22:33Z</time>
      </trkpt>
      <trkpt lat="48.32916" lon="7.31369">
        <ele>292</ele>
        <time>2020-04-05T17:22:40Z</time>
      </trkpt>
      <trkpt lat="48.32926" lon="7.31376">
        <ele>291</ele>
        <time>2020-04-05T17:22:42Z</time>
      </trkpt>
      <trkpt lat="48.32926" lon="7.31373">
        <ele>292</ele>
        <time>2020-04-05T17:22:43Z</time>
      </trkpt>
      <trkpt lat="48.32933" lon="7.31353">
        <ele>292</ele>
        <time>2020-04-05T17:22:45Z</time>
      </trkpt>
      <trkpt lat="48.32945" lon="7.31306">
        <ele>292</ele>
        <time>2020-04-05T17:22:51Z</time>
      </trkpt>
      <trkpt lat="48.32949" lon="7.31297">
        <ele>292</ele>
        <time>2020-04-05T17:22:52Z</time>
      </trkpt>
      <trkpt lat="48.32957" lon="7.31275">
        <ele>292</ele>
        <time>2020-04-05T17:22:55Z</time>
      </trkpt>
      <trkpt lat="48.3296" lon="7.31267">
        <ele>292</ele>
        <time>2020-04-05T17:22:57Z</time>
      </trkpt>
      <trkpt lat="48.32976" lon="7.31225">
        <ele>293</ele>
        <time>2020-04-05T17:23:02Z</time>
      </trkpt>
      <trkpt lat="48.32982" lon="7.31203">
        <ele>293</ele>
        <time>2020-04-05T17:23:05Z</time>
      </trkpt>
      <trkpt lat="48.32997" lon="7.31131">
        <ele>297</ele>
        <time>2020-04-05T17:23:14Z</time>
      </trkpt>
      <trkpt lat="48.33008" lon="7.3106">
        <ele>300</ele>
        <time>2020-04-05T17:23:23Z</time>
      </trkpt>
      <trkpt lat="48.3301" lon="7.31045">
        <ele>300</ele>
        <time>2020-04-05T17:23:24Z</time>
      </trkpt>
      <trkpt lat="48.33014" lon="7.31012">
        <ele>300</ele>
        <time>2020-04-05T17:23:28Z</time>
      </trkpt>
      <trkpt lat="48.33019" lon="7.30965">
        <ele>302</ele>
        <time>2020-04-05T17:23:34Z</time>
      </trkpt>
      <trkpt lat="48.33031" lon="7.30836">
        <ele>307</ele>
        <time>2020-04-05T17:23:49Z</time>
      </trkpt>
      <trkpt lat="48.33038" lon="7.30798">
        <ele>308</ele>
        <time>2020-04-05T17:23:54Z</time>
      </trkpt>
      <trkpt lat="48.33069" lon="7.30703">
        <ele>310</ele>
        <time>2020-04-05T17:24:07Z</time>
      </trkpt>
      <trkpt lat="48.33078" lon="7.30643">
        <ele>312</ele>
        <time>2020-04-05T17:24:14Z</time>
      </trkpt>
      <trkpt lat="48.33079" lon="7.30619">
        <ele>313</ele>
        <time>2020-04-05T17:24:17Z</time>
      </trkpt>
      <trkpt lat="48.33084" lon="7.30485">
        <ele>317</ele>
        <time>2020-04-05T17:24:33Z</time>
      </trkpt>
      <trkpt lat="48.33087" lon="7.30436">
        <ele>317</ele>
        <time>2020-04-05T17:24:38Z</time>
      </trkpt>
      <trkpt lat="48.33091" lon="7.30404">
        <ele>317</ele>
        <time>2020-04-05T17:24:42Z</time>
      </trkpt>
      <trkpt lat="48.33101" lon="7.30355">
        <ele>317</ele>
        <time>2020-04-05T17:24:48Z</time>
      </trkpt>
      <trkpt lat="48.33108" lon="7.30336">
        <ele>316</ele>
        <time>2020-04-05T17:24:51Z</time>
      </trkpt>
      <trkpt lat="48.33116" lon="7.30319">
        <ele>317</ele>
        <time>2020-04-05T17:24:53Z</time>
      </trkpt>
      <trkpt lat="48.33141" lon="7.3028">
        <ele>318</ele>
        <time>2020-04-05T17:25:00Z</time>
      </trkpt>
      <trkpt lat="48.33153" lon="7.30264">
        <ele>318</ele>
        <time>2020-04-05T17:25:03Z</time>
      </trkpt>
      <trkpt lat="48.3317" lon="7.30244">
        <ele>318</ele>
        <time>2020-04-05T17:25:06Z</time>
      </trkpt>
      <trkpt lat="48.33234" lon="7.30164">
        <ele>321</ele>
        <time>2020-04-05T17:25:21Z</time>
      </trkpt>
      <trkpt lat="48.3325" lon="7.30141">
        <ele>322</ele>
        <time>2020-04-05T17:25:25Z</time>
      </trkpt>
      <trkpt lat="48.33255" lon="7.30133">
        <ele>321</ele>
        <time>2020-04-05T17:25:27Z</time>
      </trkpt>
      <trkpt lat="48.33286" lon="7.30076">
        <ele>319</ele>
        <time>2020-04-05T17:25:35Z</time>
      </trkpt>
      <trkpt lat="48.33297" lon="7.30049">
        <ele>318</ele>
        <time>2020-04-05T17:25:39Z</time>
      </trkpt>
      <trkpt lat="48.33305" lon="7.30024">
        <ele>316</ele>
        <time>2020-04-05T17:25:42Z</time>
      </trkpt>
      <trkpt lat="48.33312" lon="7.29995">
        <ele>315</ele>
        <time>2020-04-05T17:25:46Z</time>
      </trkpt>
      <trkpt lat="48.33316" lon="7.29961">
        <ele>314</ele>
        <time>2020-04-05T17:25:50Z</time>
      </trkpt>
      <trkpt lat="48.33318" lon="7.29933">
        <ele>313</ele>
        <time>2020-04-05T17:25:53Z</time>
      </trkpt>
      <trkpt lat="48.33317" lon="7.29909">
        <ele>313</ele>
        <time>2020-04-05T17:25:56Z</time>
      </trkpt>
      <trkpt lat="48.33313" lon="7.29871">
        <ele>311</ele>
        <time>2020-04-05T17:26:01Z</time>
      </trkpt>
      <trkpt lat="48.33308" lon="7.29838">
        <ele>311</ele>
        <time>2020-04-05T17:26:05Z</time>
      </trkpt>
      <trkpt lat="48.33288" lon="7.29728">
        <ele>309</ele>
        <time>2020-04-05T17:26:18Z</time>
      </trkpt>
      <trkpt lat="48.33277" lon="7.29672">
        <ele>306</ele>
        <time>2020-04-05T17:26:25Z</time>
      </trkpt>
      <trkpt lat="48.3326" lon="7.29589">
        <ele>306</ele>
        <time>2020-04-05T17:26:35Z</time>
      </trkpt>
      <trkpt lat="48.33258" lon="7.2958">
        <ele>306</ele>
        <time>2020-04-05T17:26:37Z</time>
      </trkpt>
      <trkpt lat="48.33246" lon="7.29517">
        <ele>306</ele>
        <time>2020-04-05T17:26:44Z</time>
      </trkpt>
      <trkpt lat="48.33244" lon="7.29503">
        <ele>306</ele>
        <time>2020-04-05T17:26:46Z</time>
      </trkpt>
      <trkpt lat="48.33243" lon="7.29475">
        <ele>307</ele>
        <time>2020-04-05T17:26:49Z</time>
      </trkpt>
      <trkpt lat="48.33248" lon="7.29449">
        <ele>308</ele>
        <time>2020-04-05T17:26:52Z</time>
      </trkpt>
      <trkpt lat="48.33255" lon="7.29426">
        <ele>310</ele>
        <time>2020-04-05T17:26:55Z</time>
      </trkpt>
      <trkpt lat="48.33266" lon="7.29409">
        <ele>310</ele>
        <time>2020-04-05T17:26:58Z</time>
      </trkpt>
      <trkpt lat="48.33277" lon="7.29396">
        <ele>311</ele>
        <time>2020-04-05T17:27:01Z</time>
      </trkpt>
      <trkpt lat="48.33289" lon="7.29386">
        <ele>312</ele>
        <time>2020-04-05T17:27:03Z</time>
      </trkpt>
      <trkpt lat="48.33298" lon="7.29382">
        <ele>312</ele>
        <time>2020-04-05T17:27:05Z</time>
      </trkpt>
      <trkpt lat="48.33317" lon="7.29367">
        <ele>313</ele>
        <time>2020-04-05T17:27:09Z</time>
      </trkpt>
      <trkpt lat="48.33322" lon="7.29362">
        <ele>313</ele>
        <time>2020-04-05T17:27:10Z</time>
      </trkpt>
      <trkpt lat="48.33327" lon="7.29355">
        <ele>313</ele>
        <time>2020-04-05T17:27:11Z</time>
      </trkpt>
      <trkpt lat="48.3333" lon="7.29346">
        <ele>313</ele>
        <time>2020-04-05T17:27:12Z</time>
      </trkpt>
      <trkpt lat="48.33334" lon="7.29346">
        <ele>313</ele>
        <time>2020-04-05T17:27:13Z</time>
      </trkpt>
      <trkpt lat="48.33336" lon="7.29344">
        <ele>313</ele>
        <time>2020-04-05T17:27:13Z</time>
      </trkpt>
      <trkpt lat="48.33339" lon="7.29337">
        <ele>314</ele>
        <time>2020-04-05T17:27:14Z</time>
      </trkpt>
      <trkpt lat="48.33338" lon="7.2933">
        <ele>314</ele>
        <time>2020-04-05T17:27:15Z</time>
      </trkpt>
      <trkpt lat="48.33336" lon="7.29324">
        <ele>314</ele>
        <time>2020-04-05T17:27:16Z</time>
      </trkpt>
      <trkpt lat="48.33334" lon="7.29303">
        <ele>314</ele>
        <time>2020-04-05T17:27:18Z</time>
      </trkpt>
      <trkpt lat="48.33329" lon="7.29286">
        <ele>315</ele>
        <time>2020-04-05T17:27:21Z</time>
      </trkpt>
      <trkpt lat="48.33321" lon="7.29255">
        <ele>316</ele>
        <time>2020-04-05T17:27:25Z</time>
      </trkpt>
      <trkpt lat="48.33307" lon="7.29214">
        <ele>315</ele>
        <time>2020-04-05T17:27:30Z</time>
      </trkpt>
      <trkpt lat="48.333" lon="7.29197">
        <ele>315</ele>
        <time>2020-04-05T17:27:32Z</time>
      </trkpt>
      <trkpt lat="48.33288" lon="7.29173">
        <ele>314</ele>
        <time>2020-04-05T17:27:36Z</time>
      </trkpt>
      <trkpt lat="48.33259" lon="7.29128">
        <ele>316</ele>
        <time>2020-04-05T17:27:43Z</time>
      </trkpt>
      <trkpt lat="48.33225" lon="7.2906">
        <ele>318</ele>
        <time>2020-04-05T17:27:53Z</time>
      </trkpt>
      <trkpt lat="48.3321" lon="7.29019">
        <ele>317</ele>
        <time>2020-04-05T17:27:59Z</time>
      </trkpt>
      <trkpt lat="48.33199" lon="7.28967">
        <ele>315</ele>
        <time>2020-04-05T17:28:05Z</time>
      </trkpt>
      <trkpt lat="48.33194" lon="7.28881">
        <ele>311</ele>
        <time>2020-04-05T17:28:16Z</time>
      </trkpt>
      <trkpt lat="48.33188" lon="7.28854">
        <ele>311</ele>
        <time>2020-04-05T17:28:19Z</time>
      </trkpt>
      <trkpt lat="48.3318" lon="7.28828">
        <ele>310</ele>
        <time>2020-04-05T17:28:22Z</time>
      </trkpt>
      <trkpt lat="48.3313" lon="7.28674">
        <ele>308</ele>
        <time>2020-04-05T17:28:43Z</time>
      </trkpt>
      <trkpt lat="48.33133" lon="7.28671">
        <ele>308</ele>
        <time>2020-04-05T17:28:43Z</time>
      </trkpt>
      <trkpt lat="48.33143" lon="7.28659">
        <ele>307</ele>
        <time>2020-04-05T17:28:46Z</time>
      </trkpt>
      <trkpt lat="48.33133" lon="7.28671">
        <ele>308</ele>
        <time>2020-04-05T17:28:48Z</time>
      </trkpt>
      <trkpt lat="48.3313" lon="7.28674">
        <ele>308</ele>
        <time>2020-04-05T17:28:48Z</time>
      </trkpt>
      <trkpt lat="48.33116" lon="7.28632">
        <ele>307</ele>
        <time>2020-04-05T17:28:54Z</time>
      </trkpt>
      <trkpt lat="48.33109" lon="7.28611">
        <ele>307</ele>
        <time>2020-04-05T17:28:57Z</time>
      </trkpt>
      <trkpt lat="48.33103" lon="7.28585">
        <ele>306</ele>
        <time>2020-04-05T17:29:00Z</time>
      </trkpt>
      <trkpt lat="48.33084" lon="7.28482">
        <ele>300</ele>
        <time>2020-04-05T17:29:13Z</time>
      </trkpt>
      <trkpt lat="48.33073" lon="7.28452">
        <ele>299</ele>
        <time>2020-04-05T17:29:17Z</time>
      </trkpt>
      <trkpt lat="48.3306" lon="7.28429">
        <ele>299</ele>
        <time>2020-04-05T17:29:20Z</time>
      </trkpt>
      <trkpt lat="48.33037" lon="7.28393">
        <ele>300</ele>
        <time>2020-04-05T17:29:26Z</time>
      </trkpt>
      <trkpt lat="48.3303" lon="7.28384">
        <ele>301</ele>
        <time>2020-04-05T17:29:28Z</time>
      </trkpt>
      <trkpt lat="48.32995" lon="7.28352">
        <ele>302</ele>
        <time>2020-04-05T17:29:35Z</time>
      </trkpt>
      <trkpt lat="48.32991" lon="7.28344">
        <ele>302</ele>
        <time>2020-04-05T17:29:36Z</time>
      </trkpt>
      <trkpt lat="48.32987" lon="7.28336">
        <ele>302</ele>
        <time>2020-04-05T17:29:38Z</time>
      </trkpt>
      <trkpt lat="48.32986" lon="7.28328">
        <ele>303</ele>
        <time>2020-04-05T17:29:39Z</time>
      </trkpt>
      <trkpt lat="48.32987" lon="7.28319">
        <ele>303</ele>
        <time>2020-04-05T17:29:40Z</time>
      </trkpt>
      <trkpt lat="48.32992" lon="7.28298">
        <ele>304</ele>
        <time>2020-04-05T17:29:42Z</time>
      </trkpt>
      <trkpt lat="48.32994" lon="7.28293">
        <ele>305</ele>
        <time>2020-04-05T17:29:43Z</time>
      </trkpt>
      <trkpt lat="48.32998" lon="7.28287">
        <ele>305</ele>
        <time>2020-04-05T17:29:44Z</time>
      </trkpt>
      <trkpt lat="48.33013" lon="7.2827">
        <ele>305</ele>
        <time>2020-04-05T17:29:47Z</time>
      </trkpt>
      <trkpt lat="48.33025" lon="7.28255">
        <ele>305</ele>
        <time>2020-04-05T17:29:50Z</time>
      </trkpt>
      <trkpt lat="48.33033" lon="7.28243">
        <ele>304</ele>
        <time>2020-04-05T17:29:52Z</time>
      </trkpt>
      <trkpt lat="48.33043" lon="7.28222">
        <ele>304</ele>
        <time>2020-04-05T17:29:55Z</time>
      </trkpt>
      <trkpt lat="48.33059" lon="7.2817">
        <ele>304</ele>
        <time>2020-04-05T17:30:02Z</time>
      </trkpt>
      <trkpt lat="48.33066" lon="7.2813">
        <ele>304</ele>
        <time>2020-04-05T17:30:07Z</time>
      </trkpt>
      <trkpt lat="48.33075" lon="7.28025">
        <ele>303</ele>
        <time>2020-04-05T17:30:19Z</time>
      </trkpt>
      <trkpt lat="48.33087" lon="7.27931">
        <ele>302</ele>
        <time>2020-04-05T17:30:31Z</time>
      </trkpt>
      <trkpt lat="48.33091" lon="7.27874">
        <ele>301</ele>
        <time>2020-04-05T17:30:37Z</time>
      </trkpt>
      <trkpt lat="48.3309" lon="7.27848">
        <ele>300</ele>
        <time>2020-04-05T17:30:40Z</time>
      </trkpt>
      <trkpt lat="48.3308" lon="7.27764">
        <ele>300</ele>
        <time>2020-04-05T17:30:51Z</time>
      </trkpt>
      <trkpt lat="48.33058" lon="7.27647">
        <ele>301</ele>
        <time>2020-04-05T17:31:05Z</time>
      </trkpt>
      <trkpt lat="48.33057" lon="7.27643">
        <ele>302</ele>
        <time>2020-04-05T17:31:05Z</time>
      </trkpt>
      <trkpt lat="48.33039" lon="7.27544">
        <ele>303</ele>
        <time>2020-04-05T17:31:18Z</time>
      </trkpt>
      <trkpt lat="48.33036" lon="7.27513">
        <ele>301</ele>
        <time>2020-04-05T17:31:21Z</time>
      </trkpt>
      <trkpt lat="48.33037" lon="7.27491">
        <ele>300</ele>
        <time>2020-04-05T17:31:24Z</time>
      </trkpt>
      <trkpt lat="48.3304" lon="7.27489">
        <ele>300</ele>
        <time>2020-04-05T17:31:25Z</time>
      </trkpt>
      <trkpt lat="48.3303" lon="7.27441">
        <ele>299</ele>
        <time>2020-04-05T17:31:30Z</time>
      </trkpt>
      <trkpt lat="48.33036" lon="7.2744">
        <ele>298</ele>
        <time>2020-04-05T17:31:32Z</time>
      </trkpt>
      <trkpt lat="48.33101" lon="7.26645">
        <ele>322</ele>
        <time>2020-04-05T17:33:06Z</time>
      </trkpt>
      <trkpt lat="48.33101" lon="7.26643">
        <ele>322</ele>
        <time>2020-04-05T17:33:07Z</time>
      </trkpt>
      <trkpt lat="48.33093" lon="7.26632">
        <ele>320</ele>
        <time>2020-04-05T17:33:08Z</time>
      </trkpt>
      <trkpt lat="48.33087" lon="7.26615">
        <ele>320</ele>
        <time>2020-04-05T17:33:11Z</time>
      </trkpt>
      <trkpt lat="48.3306" lon="7.26582">
        <ele>315</ele>
        <time>2020-04-05T17:33:17Z</time>
      </trkpt>
      <trkpt lat="48.33054" lon="7.26577">
        <ele>314</ele>
        <time>2020-04-05T17:33:18Z</time>
      </trkpt>
      <trkpt lat="48.33052" lon="7.26521">
        <ele>315</ele>
        <time>2020-04-05T17:33:25Z</time>
      </trkpt>
      <trkpt lat="48.33047" lon="7.265">
        <ele>315</ele>
        <time>2020-04-05T17:33:27Z</time>
      </trkpt>
      <trkpt lat="48.33036" lon="7.26483">
        <ele>313</ele>
        <time>2020-04-05T17:33:30Z</time>
      </trkpt>
      <trkpt lat="48.33024" lon="7.26457">
        <ele>310</ele>
        <time>2020-04-05T17:33:34Z</time>
      </trkpt>
      <trkpt lat="48.33014" lon="7.2645">
        <ele>308</ele>
        <time>2020-04-05T17:33:36Z</time>
      </trkpt>
      <trkpt lat="48.32994" lon="7.26429">
        <ele>306</ele>
        <time>2020-04-05T17:33:40Z</time>
      </trkpt>
      <trkpt lat="48.32989" lon="7.26432">
        <ele>306</ele>
        <time>2020-04-05T17:33:41Z</time>
      </trkpt>
      <trkpt lat="48.32974" lon="7.26439">
        <ele>306</ele>
        <time>2020-04-05T17:33:44Z</time>
      </trkpt>
      <trkpt lat="48.3297" lon="7.26442">
        <ele>306</ele>
        <time>2020-04-05T17:33:45Z</time>
      </trkpt>
      <trkpt lat="48.32966" lon="7.26448">
        <ele>306</ele>
        <time>2020-04-05T17:33:46Z</time>
      </trkpt>
      <trkpt lat="48.32962" lon="7.2646">
        <ele>306</ele>
        <time>2020-04-05T17:33:47Z</time>
      </trkpt>
      <trkpt lat="48.32961" lon="7.26464">
        <ele>305</ele>
        <time>2020-04-05T17:33:48Z</time>
      </trkpt>
      <trkpt lat="48.3296" lon="7.26468">
        <ele>305</ele>
        <time>2020-04-05T17:33:48Z</time>
      </trkpt>
      <trkpt lat="48.32956" lon="7.26479">
        <ele>305</ele>
        <time>2020-04-05T17:33:50Z</time>
      </trkpt>
      <trkpt lat="48.32949" lon="7.26492">
        <ele>304</ele>
        <time>2020-04-05T17:33:52Z</time>
      </trkpt>
      <trkpt lat="48.3292" lon="7.26534">
        <ele>303</ele>
        <time>2020-04-05T17:33:59Z</time>
      </trkpt>
      <trkpt lat="48.32915" lon="7.26546">
        <ele>302</ele>
        <time>2020-04-05T17:34:01Z</time>
      </trkpt>
      <trkpt lat="48.32913" lon="7.26557">
        <ele>302</ele>
        <time>2020-04-05T17:34:02Z</time>
      </trkpt>
      <trkpt lat="48.32913" lon="7.26569">
        <ele>302</ele>
        <time>2020-04-05T17:34:03Z</time>
      </trkpt>
      <trkpt lat="48.32881" lon="7.26574">
        <ele>303</ele>
        <time>2020-04-05T17:34:09Z</time>
      </trkpt>
      <trkpt lat="48.32852" lon="7.26604">
        <ele>304</ele>
        <time>2020-04-05T17:34:15Z</time>
      </trkpt>
      <trkpt lat="48.32849" lon="7.26605">
        <ele>304</ele>
        <time>2020-04-05T17:34:16Z</time>
      </trkpt>
      <trkpt lat="48.32845" lon="7.26604">
        <ele>305</ele>
        <time>2020-04-05T17:34:17Z</time>
      </trkpt>
      <trkpt lat="48.32819" lon="7.2655">
        <ele>305</ele>
        <time>2020-04-05T17:34:25Z</time>
      </trkpt>
      <trkpt lat="48.32813" lon="7.26547">
        <ele>305</ele>
        <time>2020-04-05T17:34:26Z</time>
      </trkpt>
      <trkpt lat="48.32776" lon="7.26587">
        <ele>306</ele>
        <time>2020-04-05T17:34:34Z</time>
      </trkpt>
      <trkpt lat="48.32751" lon="7.26528">
        <ele>306</ele>
        <time>2020-04-05T17:34:42Z</time>
      </trkpt>
      <trkpt lat="48.32748" lon="7.26523">
        <ele>306</ele>
        <time>2020-04-05T17:34:43Z</time>
      </trkpt>
      <trkpt lat="48.32725" lon="7.26467">
        <ele>307</ele>
        <time>2020-04-05T17:34:51Z</time>
      </trkpt>
      <trkpt lat="48.32677" lon="7.26354">
        <ele>310</ele>
        <time>2020-04-05T17:35:07Z</time>
      </trkpt>
      <trkpt lat="48.32657" lon="7.26307">
        <ele>312</ele>
        <time>2020-04-05T17:35:13Z</time>
      </trkpt>
      <trkpt lat="48.32657" lon="7.26305">
        <ele>312</ele>
        <time>2020-04-05T17:35:13Z</time>
      </trkpt>
      <trkpt lat="48.32534" lon="7.26021">
        <ele>321</ele>
        <time>2020-04-05T17:35:54Z</time>
      </trkpt>
      <trkpt lat="48.325" lon="7.25944">
        <ele>321</ele>
        <time>2020-04-05T17:36:04Z</time>
      </trkpt>
      <trkpt lat="48.32475" lon="7.25885">
        <ele>323</ele>
        <time>2020-04-05T17:36:13Z</time>
      </trkpt>
      <trkpt lat="48.32459" lon="7.25838">
        <ele>323</ele>
        <time>2020-04-05T17:36:19Z</time>
      </trkpt>
      <trkpt lat="48.32386" lon="7.25562">
        <ele>338</ele>
        <time>2020-04-05T17:36:54Z</time>
      </trkpt>
      <trkpt lat="48.32353" lon="7.25454">
        <ele>348</ele>
        <time>2020-04-05T17:37:08Z</time>
      </trkpt>
      <trkpt lat="48.32347" lon="7.25425">
        <ele>349</ele>
        <time>2020-04-05T17:37:12Z</time>
      </trkpt>
      <trkpt lat="48.32347" lon="7.25385">
        <ele>347</ele>
        <time>2020-04-05T17:37:17Z</time>
      </trkpt>
      <trkpt lat="48.32357" lon="7.25335">
        <ele>343</ele>
        <time>2020-04-05T17:37:23Z</time>
      </trkpt>
      <trkpt lat="48.32376" lon="7.25273">
        <ele>341</ele>
        <time>2020-04-05T17:37:31Z</time>
      </trkpt>
      <trkpt lat="48.32387" lon="7.2524">
        <ele>340</ele>
        <time>2020-04-05T17:37:35Z</time>
      </trkpt>
      <trkpt lat="48.32412" lon="7.25176">
        <ele>339</ele>
        <time>2020-04-05T17:37:44Z</time>
      </trkpt>
      <trkpt lat="48.3242" lon="7.25151">
        <ele>340</ele>
        <time>2020-04-05T17:37:47Z</time>
      </trkpt>
      <trkpt lat="48.32424" lon="7.25128">
        <ele>342</ele>
        <time>2020-04-05T17:37:50Z</time>
      </trkpt>
      <trkpt lat="48.32433" lon="7.25023">
        <ele>347</ele>
        <time>2020-04-05T17:38:03Z</time>
      </trkpt>
      <trkpt lat="48.32434" lon="7.25006">
        <ele>348</ele>
        <time>2020-04-05T17:38:05Z</time>
      </trkpt>
      <trkpt lat="48.32443" lon="7.24893">
        <ele>351</ele>
        <time>2020-04-05T17:38:18Z</time>
      </trkpt>
      <trkpt lat="48.32448" lon="7.24851">
        <ele>351</ele>
        <time>2020-04-05T17:38:23Z</time>
      </trkpt>
      <trkpt lat="48.3249" lon="7.24703">
        <ele>355</ele>
        <time>2020-04-05T17:38:42Z</time>
      </trkpt>
      <trkpt lat="48.32499" lon="7.24661">
        <ele>352</ele>
        <time>2020-04-05T17:38:47Z</time>
      </trkpt>
      <trkpt lat="48.3251" lon="7.24471">
        <ele>353</ele>
        <time>2020-04-05T17:39:10Z</time>
      </trkpt>
      <trkpt lat="48.3251" lon="7.24409">
        <ele>352</ele>
        <time>2020-04-05T17:39:17Z</time>
      </trkpt>
      <trkpt lat="48.32505" lon="7.24182">
        <ele>355</ele>
        <time>2020-04-05T17:39:44Z</time>
      </trkpt>
      <trkpt lat="48.32501" lon="7.24135">
        <ele>355</ele>
        <time>2020-04-05T17:39:50Z</time>
      </trkpt>
      <trkpt lat="48.32483" lon="7.24021">
        <ele>360</ele>
        <time>2020-04-05T17:40:04Z</time>
      </trkpt>
      <trkpt lat="48.32473" lon="7.23872">
        <ele>370</ele>
        <time>2020-04-05T17:40:21Z</time>
      </trkpt>
      <trkpt lat="48.32455" lon="7.23764">
        <ele>371</ele>
        <time>2020-04-05T17:40:34Z</time>
      </trkpt>
      <trkpt lat="48.32424" lon="7.23605">
        <ele>370</ele>
        <time>2020-04-05T17:40:54Z</time>
      </trkpt>
      <trkpt lat="48.32417" lon="7.23579">
        <ele>369</ele>
        <time>2020-04-05T17:40:57Z</time>
      </trkpt>
      <trkpt lat="48.324" lon="7.23541">
        <ele>371</ele>
        <time>2020-04-05T17:41:03Z</time>
      </trkpt>
      <trkpt lat="48.32317" lon="7.23413">
        <ele>370</ele>
        <time>2020-04-05T17:41:24Z</time>
      </trkpt>
      <trkpt lat="48.32311" lon="7.23393">
        <ele>372</ele>
        <time>2020-04-05T17:41:27Z</time>
      </trkpt>
      <trkpt lat="48.32306" lon="7.23361">
        <ele>375</ele>
        <time>2020-04-05T17:41:30Z</time>
      </trkpt>
      <trkpt lat="48.32301" lon="7.23315">
        <ele>379</ele>
        <time>2020-04-05T17:41:36Z</time>
      </trkpt>
      <trkpt lat="48.32301" lon="7.23293">
        <ele>381</ele>
        <time>2020-04-05T17:41:39Z</time>
      </trkpt>
      <trkpt lat="48.32304" lon="7.23252">
        <ele>385</ele>
        <time>2020-04-05T17:41:43Z</time>
      </trkpt>
      <trkpt lat="48.32314" lon="7.23176">
        <ele>383</ele>
        <time>2020-04-05T17:41:53Z</time>
      </trkpt>
      <trkpt lat="48.32336" lon="7.23097">
        <ele>380</ele>
        <time>2020-04-05T17:42:03Z</time>
      </trkpt>
      <trkpt lat="48.32355" lon="7.2305">
        <ele>384</ele>
        <time>2020-04-05T17:42:09Z</time>
      </trkpt>
      <trkpt lat="48.32384" lon="7.23">
        <ele>389</ele>
        <time>2020-04-05T17:42:17Z</time>
      </trkpt>
      <trkpt lat="48.3239" lon="7.22976">
        <ele>390</ele>
        <time>2020-04-05T17:42:20Z</time>
      </trkpt>
      <trkpt lat="48.3239" lon="7.22911">
        <ele>389</ele>
        <time>2020-04-05T17:42:28Z</time>
      </trkpt>
      <trkpt lat="48.32398" lon="7.22847">
        <ele>386</ele>
        <time>2020-04-05T17:42:36Z</time>
      </trkpt>
      <trkpt lat="48.32409" lon="7.22794">
        <ele>383</ele>
        <time>2020-04-05T17:42:42Z</time>
      </trkpt>
      <trkpt lat="48.32429" lon="7.22744">
        <ele>382</ele>
        <time>2020-04-05T17:42:49Z</time>
      </trkpt>
      <trkpt lat="48.3245" lon="7.22705">
        <ele>384</ele>
        <time>2020-04-05T17:42:55Z</time>
      </trkpt>
      <trkpt lat="48.32495" lon="7.22642">
        <ele>382</ele>
        <time>2020-04-05T17:43:06Z</time>
      </trkpt>
      <trkpt lat="48.32583" lon="7.22441">
        <ele>385</ele>
        <time>2020-04-05T17:43:34Z</time>
      </trkpt>
      <trkpt lat="48.32606" lon="7.22398">
        <ele>388</ele>
        <time>2020-04-05T17:43:41Z</time>
      </trkpt>
      <trkpt lat="48.32691" lon="7.2228">
        <ele>398</ele>
        <time>2020-04-05T17:44:01Z</time>
      </trkpt>
      <trkpt lat="48.32698" lon="7.22262">
        <ele>401</ele>
        <time>2020-04-05T17:44:04Z</time>
      </trkpt>
      <trkpt lat="48.32701" lon="7.22243">
        <ele>403</ele>
        <time>2020-04-05T17:44:06Z</time>
      </trkpt>
      <trkpt lat="48.32703" lon="7.22219">
        <ele>404</ele>
        <time>2020-04-05T17:44:09Z</time>
      </trkpt>
      <trkpt lat="48.32705" lon="7.22107">
        <ele>403</ele>
        <time>2020-04-05T17:44:22Z</time>
      </trkpt>
      <trkpt lat="48.3272" lon="7.21936">
        <ele>408</ele>
        <time>2020-04-05T17:44:43Z</time>
      </trkpt>
      <trkpt lat="48.32721" lon="7.21856">
        <ele>410</ele>
        <time>2020-04-05T17:44:52Z</time>
      </trkpt>
      <trkpt lat="48.32718" lon="7.21794">
        <ele>409</ele>
        <time>2020-04-05T17:45:00Z</time>
      </trkpt>
      <trkpt lat="48.32713" lon="7.21755">
        <ele>407</ele>
        <time>2020-04-05T17:45:04Z</time>
      </trkpt>
      <trkpt lat="48.32696" lon="7.21677">
        <ele>402</ele>
        <time>2020-04-05T17:45:14Z</time>
      </trkpt>
      <trkpt lat="48.32691" lon="7.21631">
        <ele>402</ele>
        <time>2020-04-05T17:45:19Z</time>
      </trkpt>
      <trkpt lat="48.3268" lon="7.21456">
        <ele>408</ele>
        <time>2020-04-05T17:45:40Z</time>
      </trkpt>
      <trkpt lat="48.32676" lon="7.21434">
        <ele>407</ele>
        <time>2020-04-05T17:45:43Z</time>
      </trkpt>
      <trkpt lat="48.32663" lon="7.21406">
        <ele>405</ele>
        <time>2020-04-05T17:45:47Z</time>
      </trkpt>
      <trkpt lat="48.32617" lon="7.21328">
        <ele>410</ele>
        <time>2020-04-05T17:45:59Z</time>
      </trkpt>
      <trkpt lat="48.32611" lon="7.21311">
        <ele>410</ele>
        <time>2020-04-05T17:46:02Z</time>
      </trkpt>
      <trkpt lat="48.32606" lon="7.21244">
        <ele>411</ele>
        <time>2020-04-05T17:46:10Z</time>
      </trkpt>
      <trkpt lat="48.32592" lon="7.21132">
        <ele>412</ele>
        <time>2020-04-05T17:46:23Z</time>
      </trkpt>
      <trkpt lat="48.3259" lon="7.21083">
        <ele>412</ele>
        <time>2020-04-05T17:46:29Z</time>
      </trkpt>
      <trkpt lat="48.3259" lon="7.21012">
        <ele>415</ele>
        <time>2020-04-05T17:46:37Z</time>
      </trkpt>
      <trkpt lat="48.32595" lon="7.20953">
        <ele>420</ele>
        <time>2020-04-05T17:46:44Z</time>
      </trkpt>
      <trkpt lat="48.32613" lon="7.20838">
        <ele>429</ele>
        <time>2020-04-05T17:46:58Z</time>
      </trkpt>
      <trkpt lat="48.32623" lon="7.20806">
        <ele>431</ele>
        <time>2020-04-05T17:47:02Z</time>
      </trkpt>
      <trkpt lat="48.32636" lon="7.20775">
        <ele>433</ele>
        <time>2020-04-05T17:47:07Z</time>
      </trkpt>
      <trkpt lat="48.32647" lon="7.20755">
        <ele>432</ele>
        <time>2020-04-05T17:47:10Z</time>
      </trkpt>
      <trkpt lat="48.32665" lon="7.20737">
        <ele>433</ele>
        <time>2020-04-05T17:47:14Z</time>
      </trkpt>
      <trkpt lat="48.32679" lon="7.20729">
        <ele>434</ele>
        <time>2020-04-05T17:47:16Z</time>
      </trkpt>
      <trkpt lat="48.32687" lon="7.20729">
        <ele>434</ele>
        <time>2020-04-05T17:47:18Z</time>
      </trkpt>
      <trkpt lat="48.32703" lon="7.20729">
        <ele>433</ele>
        <time>2020-04-05T17:47:21Z</time>
      </trkpt>
      <trkpt lat="48.32754" lon="7.20725">
        <ele>432</ele>
        <time>2020-04-05T17:47:30Z</time>
      </trkpt>
      <trkpt lat="48.32825" lon="7.20706">
        <ele>437</ele>
        <time>2020-04-05T17:47:43Z</time>
      </trkpt>
      <trkpt lat="48.32858" lon="7.20687">
        <ele>438</ele>
        <time>2020-04-05T17:47:49Z</time>
      </trkpt>
      <trkpt lat="48.32967" lon="7.20613">
        <ele>450</ele>
        <time>2020-04-05T17:48:10Z</time>
      </trkpt>
      <trkpt lat="48.33017" lon="7.20573">
        <ele>450</ele>
        <time>2020-04-05T17:48:20Z</time>
      </trkpt>
      <trkpt lat="48.33041" lon="7.20542">
        <ele>455</ele>
        <time>2020-04-05T17:48:26Z</time>
      </trkpt>
      <trkpt lat="48.33056" lon="7.20504">
        <ele>455</ele>
        <time>2020-04-05T17:48:31Z</time>
      </trkpt>
      <trkpt lat="48.33066" lon="7.20455">
        <ele>456</ele>
        <time>2020-04-05T17:48:37Z</time>
      </trkpt>
      <trkpt lat="48.33069" lon="7.20399">
        <ele>458</ele>
        <time>2020-04-05T17:48:44Z</time>
      </trkpt>
      <trkpt lat="48.33069" lon="7.20353">
        <ele>463</ele>
        <time>2020-04-05T17:48:49Z</time>
      </trkpt>
      <trkpt lat="48.3306" lon="7.20251">
        <ele>474</ele>
        <time>2020-04-05T17:49:01Z</time>
      </trkpt>
      <trkpt lat="48.33056" lon="7.2018">
        <ele>479</ele>
        <time>2020-04-05T17:49:10Z</time>
      </trkpt>
      <trkpt lat="48.33057" lon="7.20139">
        <ele>480</ele>
        <time>2020-04-05T17:49:15Z</time>
      </trkpt>
      <trkpt lat="48.33068" lon="7.20014">
        <ele>481</ele>
        <time>2020-04-05T17:49:30Z</time>
      </trkpt>
      <trkpt lat="48.33069" lon="7.19984">
        <ele>481</ele>
        <time>2020-04-05T17:49:33Z</time>
      </trkpt>
      <trkpt lat="48.33063" lon="7.19929">
        <ele>481</ele>
        <time>2020-04-05T17:49:40Z</time>
      </trkpt>
      <trkpt lat="48.33064" lon="7.19908">
        <ele>481</ele>
        <time>2020-04-05T17:49:42Z</time>
      </trkpt>
      <trkpt lat="48.33069" lon="7.19891">
        <ele>481</ele>
        <time>2020-04-05T17:49:44Z</time>
      </trkpt>
      <trkpt lat="48.33082" lon="7.1987">
        <ele>480</ele>
        <time>2020-04-05T17:49:48Z</time>
      </trkpt>
      <trkpt lat="48.33124" lon="7.19826">
        <ele>489</ele>
        <time>2020-04-05T17:49:57Z</time>
      </trkpt>
      <trkpt lat="48.33141" lon="7.19801">
        <ele>492</ele>
        <time>2020-04-05T17:50:01Z</time>
      </trkpt>
      <trkpt lat="48.33154" lon="7.19775">
        <ele>491</ele>
        <time>2020-04-05T17:50:05Z</time>
      </trkpt>
      <trkpt lat="48.33168" lon="7.19738">
        <ele>489</ele>
        <time>2020-04-05T17:50:10Z</time>
      </trkpt>
      <trkpt lat="48.33196" lon="7.19675">
        <ele>494</ele>
        <time>2020-04-05T17:50:19Z</time>
      </trkpt>
      <trkpt lat="48.33231" lon="7.19624">
        <ele>499</ele>
        <time>2020-04-05T17:50:28Z</time>
      </trkpt>
      <trkpt lat="48.33252" lon="7.19597">
        <ele>500</ele>
        <time>2020-04-05T17:50:33Z</time>
      </trkpt>
      <trkpt lat="48.33262" lon="7.19577">
        <ele>503</ele>
        <time>2020-04-05T17:50:36Z</time>
      </trkpt>
      <trkpt lat="48.33268" lon="7.19562">
        <ele>505</ele>
        <time>2020-04-05T17:50:38Z</time>
      </trkpt>
      <trkpt lat="48.3327" lon="7.19547">
        <ele>505</ele>
        <time>2020-04-05T17:50:39Z</time>
      </trkpt>
      <trkpt lat="48.3327" lon="7.19532">
        <ele>504</ele>
        <time>2020-04-05T17:50:41Z</time>
      </trkpt>
      <trkpt lat="48.33268" lon="7.19513">
        <ele>502</ele>
        <time>2020-04-05T17:50:44Z</time>
      </trkpt>
      <trkpt lat="48.33261" lon="7.19482">
        <ele>500</ele>
        <time>2020-04-05T17:50:47Z</time>
      </trkpt>
      <trkpt lat="48.33278" lon="7.19454">
        <ele>504</ele>
        <time>2020-04-05T17:50:52Z</time>
      </trkpt>
      <trkpt lat="48.33287" lon="7.19448">
        <ele>506</ele>
        <time>2020-04-05T17:50:54Z</time>
      </trkpt>
      <trkpt lat="48.333" lon="7.19455">
        <ele>508</ele>
        <time>2020-04-05T17:50:56Z</time>
      </trkpt>
      <trkpt lat="48.33306" lon="7.1947">
        <ele>510</ele>
        <time>2020-04-05T17:50:58Z</time>
      </trkpt>
      <trkpt lat="48.33306" lon="7.19488">
        <ele>512</ele>
        <time>2020-04-05T17:51:00Z</time>
      </trkpt>
      <trkpt lat="48.333" lon="7.19539">
        <ele>516</ele>
        <time>2020-04-05T17:51:06Z</time>
      </trkpt>
      <trkpt lat="48.33286" lon="7.19584">
        <ele>514</ele>
        <time>2020-04-05T17:51:12Z</time>
      </trkpt>
      <trkpt lat="48.33269" lon="7.19633">
        <ele>513</ele>
        <time>2020-04-05T17:51:19Z</time>
      </trkpt>
      <trkpt lat="48.33265" lon="7.19672">
        <ele>516</ele>
        <time>2020-04-05T17:51:23Z</time>
      </trkpt>
      <trkpt lat="48.33261" lon="7.19722">
        <ele>521</ele>
        <time>2020-04-05T17:51:29Z</time>
      </trkpt>
      <trkpt lat="48.33246" lon="7.19804">
        <ele>527</ele>
        <time>2020-04-05T17:51:39Z</time>
      </trkpt>
      <trkpt lat="48.3321" lon="7.19901">
        <ele>530</ele>
        <time>2020-04-05T17:51:53Z</time>
      </trkpt>
      <trkpt lat="48.33193" lon="7.19956">
        <ele>531</ele>
        <time>2020-04-05T17:52:00Z</time>
      </trkpt>
      <trkpt lat="48.33188" lon="7.19981">
        <ele>532</ele>
        <time>2020-04-05T17:52:03Z</time>
      </trkpt>
      <trkpt lat="48.33179" lon="7.20128">
        <ele>525</ele>
        <time>2020-04-05T17:52:20Z</time>
      </trkpt>
      <trkpt lat="48.3318" lon="7.20143">
        <ele>524</ele>
        <time>2020-04-05T17:52:22Z</time>
      </trkpt>
      <trkpt lat="48.33182" lon="7.20152">
        <ele>523</ele>
        <time>2020-04-05T17:52:23Z</time>
      </trkpt>
      <trkpt lat="48.33191" lon="7.20162">
        <ele>523</ele>
        <time>2020-04-05T17:52:25Z</time>
      </trkpt>
      <trkpt lat="48.33196" lon="7.20163">
        <ele>524</ele>
        <time>2020-04-05T17:52:26Z</time>
      </trkpt>
      <trkpt lat="48.332" lon="7.20161">
        <ele>524</ele>
        <time>2020-04-05T17:52:27Z</time>
      </trkpt>
      <trkpt lat="48.33206" lon="7.20153">
        <ele>527</ele>
        <time>2020-04-05T17:52:28Z</time>
      </trkpt>
      <trkpt lat="48.3321" lon="7.20132">
        <ele>531</ele>
        <time>2020-04-05T17:52:31Z</time>
      </trkpt>
      <trkpt lat="48.33205" lon="7.20102">
        <ele>535</ele>
        <time>2020-04-05T17:52:35Z</time>
      </trkpt>
      <trkpt lat="48.33205" lon="7.20069">
        <ele>538</ele>
        <time>2020-04-05T17:52:38Z</time>
      </trkpt>
      <trkpt lat="48.33213" lon="7.20028">
        <ele>542</ele>
        <time>2020-04-05T17:52:44Z</time>
      </trkpt>
      <trkpt lat="48.33232" lon="7.19976">
        <ele>548</ele>
        <time>2020-04-05T17:52:51Z</time>
      </trkpt>
      <trkpt lat="48.33263" lon="7.1991">
        <ele>552</ele>
        <time>2020-04-05T17:53:00Z</time>
      </trkpt>
      <trkpt lat="48.3333" lon="7.19795">
        <ele>563</ele>
        <time>2020-04-05T17:53:18Z</time>
      </trkpt>
      <trkpt lat="48.3335" lon="7.19712">
        <ele>563</ele>
        <time>2020-04-05T17:53:29Z</time>
      </trkpt>
      <trkpt lat="48.33371" lon="7.19648">
        <ele>563</ele>
        <time>2020-04-05T17:53:37Z</time>
      </trkpt>
      <trkpt lat="48.33401" lon="7.19615">
        <ele>570</ele>
        <time>2020-04-05T17:53:44Z</time>
      </trkpt>
      <trkpt lat="48.33425" lon="7.19598">
        <ele>577</ele>
        <time>2020-04-05T17:53:48Z</time>
      </trkpt>
      <trkpt lat="48.3344" lon="7.1958">
        <ele>580</ele>
        <time>2020-04-05T17:53:52Z</time>
      </trkpt>
      <trkpt lat="48.33461" lon="7.1955">
        <ele>582</ele>
        <time>2020-04-05T17:53:57Z</time>
      </trkpt>
      <trkpt lat="48.33475" lon="7.19544">
        <ele>587</ele>
        <time>2020-04-05T17:54:00Z</time>
      </trkpt>
      <trkpt lat="48.33484" lon="7.1955">
        <ele>591</ele>
        <time>2020-04-05T17:54:01Z</time>
      </trkpt>
      <trkpt lat="48.33487" lon="7.19568">
        <ele>595</ele>
        <time>2020-04-05T17:54:04Z</time>
      </trkpt>
      <trkpt lat="48.33481" lon="7.19584">
        <ele>595</ele>
        <time>2020-04-05T17:54:06Z</time>
      </trkpt>
      <trkpt lat="48.33432" lon="7.19633">
        <ele>585</ele>
        <time>2020-04-05T17:54:16Z</time>
      </trkpt>
      <trkpt lat="48.33406" lon="7.19681">
        <ele>581</ele>
        <time>2020-04-05T17:54:23Z</time>
      </trkpt>
      <trkpt lat="48.33395" lon="7.19736">
        <ele>584</ele>
        <time>2020-04-05T17:54:30Z</time>
      </trkpt>
      <trkpt lat="48.33389" lon="7.19863">
        <ele>590</ele>
        <time>2020-04-05T17:54:45Z</time>
      </trkpt>
      <trkpt lat="48.33377" lon="7.19927">
        <ele>590</ele>
        <time>2020-04-05T17:54:53Z</time>
      </trkpt>
      <trkpt lat="48.33376" lon="7.19951">
        <ele>588</ele>
        <time>2020-04-05T17:54:56Z</time>
      </trkpt>
      <trkpt lat="48.33387" lon="7.19964">
        <ele>589</ele>
        <time>2020-04-05T17:54:59Z</time>
      </trkpt>
      <trkpt lat="48.33399" lon="7.19965">
        <ele>590</ele>
        <time>2020-04-05T17:55:01Z</time>
      </trkpt>
      <trkpt lat="48.33409" lon="7.19954">
        <ele>593</ele>
        <time>2020-04-05T17:55:03Z</time>
      </trkpt>
      <trkpt lat="48.33414" lon="7.19936">
        <ele>596</ele>
        <time>2020-04-05T17:55:05Z</time>
      </trkpt>
      <trkpt lat="48.33416" lon="7.1989">
        <ele>599</ele>
        <time>2020-04-05T17:55:11Z</time>
      </trkpt>
      <trkpt lat="48.33421" lon="7.19837">
        <ele>599</ele>
        <time>2020-04-05T17:55:17Z</time>
      </trkpt>
      <trkpt lat="48.33435" lon="7.1979">
        <ele>602</ele>
        <time>2020-04-05T17:55:23Z</time>
      </trkpt>
      <trkpt lat="48.33463" lon="7.19738">
        <ele>609</ele>
        <time>2020-04-05T17:55:31Z</time>
      </trkpt>
      <trkpt lat="48.33495" lon="7.19702">
        <ele>618</ele>
        <time>2020-04-05T17:55:38Z</time>
      </trkpt>
      <trkpt lat="48.33535" lon="7.19678">
        <ele>630</ele>
        <time>2020-04-05T17:55:46Z</time>
      </trkpt>
      <trkpt lat="48.33556" lon="7.19634">
        <ele>633</ele>
        <time>2020-04-05T17:55:52Z</time>
      </trkpt>
      <trkpt lat="48.33585" lon="7.19554">
        <ele>638</ele>
        <time>2020-04-05T17:56:03Z</time>
      </trkpt>
      <trkpt lat="48.33599" lon="7.19527">
        <ele>639</ele>
        <time>2020-04-05T17:56:07Z</time>
      </trkpt>
      <trkpt lat="48.33612" lon="7.19511">
        <ele>640</ele>
        <time>2020-04-05T17:56:10Z</time>
      </trkpt>
      <trkpt lat="48.33629" lon="7.19497">
        <ele>642</ele>
        <time>2020-04-05T17:56:13Z</time>
      </trkpt>
      <trkpt lat="48.33672" lon="7.19487">
        <ele>650</ele>
        <time>2020-04-05T17:56:21Z</time>
      </trkpt>
      <trkpt lat="48.33697" lon="7.19478">
        <ele>653</ele>
        <time>2020-04-05T17:56:26Z</time>
      </trkpt>
      <trkpt lat="48.33715" lon="7.19465">
        <ele>655</ele>
        <time>2020-04-05T17:56:29Z</time>
      </trkpt>
      <trkpt lat="48.33728" lon="7.19448">
        <ele>654</ele>
        <time>2020-04-05T17:56:32Z</time>
      </trkpt>
      <trkpt lat="48.33758" lon="7.19393">
        <ele>652</ele>
        <time>2020-04-05T17:56:41Z</time>
      </trkpt>
      <trkpt lat="48.33772" lon="7.19377">
        <ele>652</ele>
        <time>2020-04-05T17:56:44Z</time>
      </trkpt>
      <trkpt lat="48.33785" lon="7.19369">
        <ele>653</ele>
        <time>2020-04-05T17:56:46Z</time>
      </trkpt>
      <trkpt lat="48.33861" lon="7.19349">
        <ele>657</ele>
        <time>2020-04-05T17:57:00Z</time>
      </trkpt>
      <trkpt lat="48.33886" lon="7.1934">
        <ele>657</ele>
        <time>2020-04-05T17:57:05Z</time>
      </trkpt>
      <trkpt lat="48.33912" lon="7.19326">
        <ele>656</ele>
        <time>2020-04-05T17:57:10Z</time>
      </trkpt>
      <trkpt lat="48.33938" lon="7.19303">
        <ele>657</ele>
        <time>2020-04-05T17:57:15Z</time>
      </trkpt>
      <trkpt lat="48.33973" lon="7.19252">
        <ele>659</ele>
        <time>2020-04-05T17:57:24Z</time>
      </trkpt>
      <trkpt lat="48.34028" lon="7.19161">
        <ele>663</ele>
        <time>2020-04-05T17:57:38Z</time>
      </trkpt>
      <trkpt lat="48.34076" lon="7.19066">
        <ele>663</ele>
        <time>2020-04-05T17:57:52Z</time>
      </trkpt>
      <trkpt lat="48.34087" lon="7.19032">
        <ele>664</ele>
        <time>2020-04-05T17:57:57Z</time>
      </trkpt>
      <trkpt lat="48.34094" lon="7.19">
        <ele>666</ele>
        <time>2020-04-05T17:58:01Z</time>
      </trkpt>
      <trkpt lat="48.34097" lon="7.18978">
        <ele>669</ele>
        <time>2020-04-05T17:58:03Z</time>
      </trkpt>
      <trkpt lat="48.34096" lon="7.18944">
        <ele>672</ele>
        <time>2020-04-05T17:58:07Z</time>
      </trkpt>
      <trkpt lat="48.34093" lon="7.18903">
        <ele>677</ele>
        <time>2020-04-05T17:58:12Z</time>
      </trkpt>
      <trkpt lat="48.34083" lon="7.18836">
        <ele>687</ele>
        <time>2020-04-05T17:58:20Z</time>
      </trkpt>
      <trkpt lat="48.34085" lon="7.18825">
        <ele>689</ele>
        <time>2020-04-05T17:58:22Z</time>
      </trkpt>
      <trkpt lat="48.34082" lon="7.18818">
        <ele>689</ele>
        <time>2020-04-05T17:58:23Z</time>
      </trkpt>
      <trkpt lat="48.34085" lon="7.18825">
        <ele>689</ele>
        <time>2020-04-05T17:58:24Z</time>
      </trkpt>
      <trkpt lat="48.34095" lon="7.18841">
        <ele>689</ele>
        <time>2020-04-05T17:58:26Z</time>
      </trkpt>
      <trkpt lat="48.34122" lon="7.18886">
        <ele>686</ele>
        <time>2020-04-05T17:58:34Z</time>
      </trkpt>
      <trkpt lat="48.34164" lon="7.1897">
        <ele>684</ele>
        <time>2020-04-05T17:58:46Z</time>
      </trkpt>
      <trkpt lat="48.34179" lon="7.18993">
        <ele>685</ele>
        <time>2020-04-05T17:58:50Z</time>
      </trkpt>
      <trkpt lat="48.34194" lon="7.1901">
        <ele>685</ele>
        <time>2020-04-05T17:58:53Z</time>
      </trkpt>
      <trkpt lat="48.34221" lon="7.19033">
        <ele>686</ele>
        <time>2020-04-05T17:58:59Z</time>
      </trkpt>
      <trkpt lat="48.34223" lon="7.19034">
        <ele>686</ele>
        <time>2020-04-05T17:58:59Z</time>
      </trkpt>
      <trkpt lat="48.34237" lon="7.19041">
        <ele>686</ele>
        <time>2020-04-05T17:59:02Z</time>
      </trkpt>
      <trkpt lat="48.34356" lon="7.1906">
        <ele>684</ele>
        <time>2020-04-05T17:59:23Z</time>
      </trkpt>
      <trkpt lat="48.34372" lon="7.19062">
        <ele>685</ele>
        <time>2020-04-05T17:59:26Z</time>
      </trkpt>
      <trkpt lat="48.34415" lon="7.19068">
        <ele>687</ele>
        <time>2020-04-05T17:59:33Z</time>
      </trkpt>
      <trkpt lat="48.34485" lon="7.19071">
        <ele>693</ele>
        <time>2020-04-05T17:59:46Z</time>
      </trkpt>
      <trkpt lat="48.34519" lon="7.19072">
        <ele>694</ele>
        <time>2020-04-05T17:59:52Z</time>
      </trkpt>
      <trkpt lat="48.34551" lon="7.19073">
        <ele>695</ele>
        <time>2020-04-05T17:59:58Z</time>
      </trkpt>
      <trkpt lat="48.34576" lon="7.19078">
        <ele>693</ele>
        <time>2020-04-05T18:00:02Z</time>
      </trkpt>
      <trkpt lat="48.34608" lon="7.19089">
        <ele>691</ele>
        <time>2020-04-05T18:00:08Z</time>
      </trkpt>
      <trkpt lat="48.34717" lon="7.1915">
        <ele>685</ele>
        <time>2020-04-05T18:00:29Z</time>
      </trkpt>
      <trkpt lat="48.34733" lon="7.19154">
        <ele>686</ele>
        <time>2020-04-05T18:00:32Z</time>
      </trkpt>
      <trkpt lat="48.34753" lon="7.19154">
        <ele>686</ele>
        <time>2020-04-05T18:00:35Z</time>
      </trkpt>
      <trkpt lat="48.34779" lon="7.19141">
        <ele>685</ele>
        <time>2020-04-05T18:00:40Z</time>
      </trkpt>
      <trkpt lat="48.34794" lon="7.19126">
        <ele>684</ele>
        <time>2020-04-05T18:00:43Z</time>
      </trkpt>
      <trkpt lat="48.34814" lon="7.19095">
        <ele>684</ele>
        <time>2020-04-05T18:00:48Z</time>
      </trkpt>
      <trkpt lat="48.34871" lon="7.18992">
        <ele>687</ele>
        <time>2020-04-05T18:01:04Z</time>
      </trkpt>
      <trkpt lat="48.34886" lon="7.18962">
        <ele>687</ele>
        <time>2020-04-05T18:01:09Z</time>
      </trkpt>
      <trkpt lat="48.34898" lon="7.18928">
        <ele>688</ele>
        <time>2020-04-05T18:01:13Z</time>
      </trkpt>
      <trkpt lat="48.34921" lon="7.18825">
        <ele>696</ele>
        <time>2020-04-05T18:01:26Z</time>
      </trkpt>
      <trkpt lat="48.34928" lon="7.18802">
        <ele>697</ele>
        <time>2020-04-05T18:01:29Z</time>
      </trkpt>
      <trkpt lat="48.34949" lon="7.18744">
        <ele>699</ele>
        <time>2020-04-05T18:01:37Z</time>
      </trkpt>
      <trkpt lat="48.34956" lon="7.18729">
        <ele>700</ele>
        <time>2020-04-05T18:01:39Z</time>
      </trkpt>
      <trkpt lat="48.34968" lon="7.18711">
        <ele>698</ele>
        <time>2020-04-05T18:01:42Z</time>
      </trkpt>
      <trkpt lat="48.3504" lon="7.18629">
        <ele>693</ele>
        <time>2020-04-05T18:01:58Z</time>
      </trkpt>
      <trkpt lat="48.35061" lon="7.18602">
        <ele>692</ele>
        <time>2020-04-05T18:02:03Z</time>
      </trkpt>
      <trkpt lat="48.35081" lon="7.18571">
        <ele>690</ele>
        <time>2020-04-05T18:02:08Z</time>
      </trkpt>
      <trkpt lat="48.35118" lon="7.18501">
        <ele>692</ele>
        <time>2020-04-05T18:02:19Z</time>
      </trkpt>
      <trkpt lat="48.35149" lon="7.18442">
        <ele>691</ele>
        <time>2020-04-05T18:02:28Z</time>
      </trkpt>
      <trkpt lat="48.35154" lon="7.1843">
        <ele>690</ele>
        <time>2020-04-05T18:02:29Z</time>
      </trkpt>
      <trkpt lat="48.35166" lon="7.18401">
        <ele>689</ele>
        <time>2020-04-05T18:02:33Z</time>
      </trkpt>
      <trkpt lat="48.35182" lon="7.18357">
        <ele>693</ele>
        <time>2020-04-05T18:02:39Z</time>
      </trkpt>
      <trkpt lat="48.35186" lon="7.1835">
        <ele>693</ele>
        <time>2020-04-05T18:02:40Z</time>
      </trkpt>
      <trkpt lat="48.35191" lon="7.18346">
        <ele>692</ele>
        <time>2020-04-05T18:02:41Z</time>
      </trkpt>
      <trkpt lat="48.35225" lon="7.18305">
        <ele>688</ele>
        <time>2020-04-05T18:02:49Z</time>
      </trkpt>
      <trkpt lat="48.35235" lon="7.18285">
        <ele>687</ele>
        <time>2020-04-05T18:02:52Z</time>
      </trkpt>
      <trkpt lat="48.35237" lon="7.18281">
        <ele>687</ele>
        <time>2020-04-05T18:02:53Z</time>
      </trkpt>
      <trkpt lat="48.35277" lon="7.1821">
        <ele>682</ele>
        <time>2020-04-05T18:03:04Z</time>
      </trkpt>
      <trkpt lat="48.35294" lon="7.18185">
        <ele>679</ele>
        <time>2020-04-05T18:03:08Z</time>
      </trkpt>
      <trkpt lat="48.35305" lon="7.18154">
        <ele>676</ele>
        <time>2020-04-05T18:03:12Z</time>
      </trkpt>
      <trkpt lat="48.3531" lon="7.18096">
        <ele>672</ele>
        <time>2020-04-05T18:03:19Z</time>
      </trkpt>
      <trkpt lat="48.35348" lon="7.18004">
        <ele>662</ele>
        <time>2020-04-05T18:03:32Z</time>
      </trkpt>
      <trkpt lat="48.35366" lon="7.17921">
        <ele>663</ele>
        <time>2020-04-05T18:03:42Z</time>
      </trkpt>
      <trkpt lat="48.35404" lon="7.1789">
        <ele>653</ele>
        <time>2020-04-05T18:03:50Z</time>
      </trkpt>
      <trkpt lat="48.35422" lon="7.17865">
        <ele>650</ele>
        <time>2020-04-05T18:03:54Z</time>
      </trkpt>
      <trkpt lat="48.35434" lon="7.17827">
        <ele>652</ele>
        <time>2020-04-05T18:03:59Z</time>
      </trkpt>
      <trkpt lat="48.35449" lon="7.17791">
        <ele>651</ele>
        <time>2020-04-05T18:04:04Z</time>
      </trkpt>
      <trkpt lat="48.35466" lon="7.17776">
        <ele>650</ele>
        <time>2020-04-05T18:04:08Z</time>
      </trkpt>
      <trkpt lat="48.35491" lon="7.17776">
        <ele>647</ele>
        <time>2020-04-05T18:04:12Z</time>
      </trkpt>
      <trkpt lat="48.35525" lon="7.17791">
        <ele>644</ele>
        <time>2020-04-05T18:04:18Z</time>
      </trkpt>
      <trkpt lat="48.3557" lon="7.178">
        <ele>641</ele>
        <time>2020-04-05T18:04:26Z</time>
      </trkpt>
      <trkpt lat="48.35625" lon="7.1781">
        <ele>636</ele>
        <time>2020-04-05T18:04:36Z</time>
      </trkpt>
      <trkpt lat="48.35647" lon="7.17805">
        <ele>634</ele>
        <time>2020-04-05T18:04:40Z</time>
      </trkpt>
      <trkpt lat="48.35665" lon="7.17785">
        <ele>633</ele>
        <time>2020-04-05T18:04:44Z</time>
      </trkpt>
      <trkpt lat="48.35685" lon="7.17746">
        <ele>631</ele>
        <time>2020-04-05T18:04:50Z</time>
      </trkpt>
      <trkpt lat="48.35751" lon="7.17685">
        <ele>621</ele>
        <time>2020-04-05T18:05:04Z</time>
      </trkpt>
      <trkpt lat="48.35799" lon="7.17642">
        <ele>614</ele>
        <time>2020-04-05T18:05:14Z</time>
      </trkpt>
      <trkpt lat="48.35813" lon="7.17635">
        <ele>613</ele>
        <time>2020-04-05T18:05:16Z</time>
      </trkpt>
      <trkpt lat="48.3583" lon="7.17639">
        <ele>612</ele>
        <time>2020-04-05T18:05:19Z</time>
      </trkpt>
      <trkpt lat="48.35845" lon="7.17649">
        <ele>609</ele>
        <time>2020-04-05T18:05:22Z</time>
      </trkpt>
      <trkpt lat="48.35871" lon="7.17719">
        <ele>607</ele>
        <time>2020-04-05T18:05:32Z</time>
      </trkpt>
      <trkpt lat="48.35884" lon="7.17748">
        <ele>606</ele>
        <time>2020-04-05T18:05:36Z</time>
      </trkpt>
      <trkpt lat="48.359" lon="7.17771">
        <ele>604</ele>
        <time>2020-04-05T18:05:40Z</time>
      </trkpt>
      <trkpt lat="48.35921" lon="7.17781">
        <ele>601</ele>
        <time>2020-04-05T18:05:44Z</time>
      </trkpt>
      <trkpt lat="48.35941" lon="7.17779">
        <ele>599</ele>
        <time>2020-04-05T18:05:47Z</time>
      </trkpt>
      <trkpt lat="48.35973" lon="7.17767">
        <ele>596</ele>
        <time>2020-04-05T18:05:53Z</time>
      </trkpt>
      <trkpt lat="48.35985" lon="7.17766">
        <ele>595</ele>
        <time>2020-04-05T18:05:55Z</time>
      </trkpt>
      <trkpt lat="48.35994" lon="7.17765">
        <ele>594</ele>
        <time>2020-04-05T18:05:57Z</time>
      </trkpt>
      <trkpt lat="48.35992" lon="7.17809">
        <ele>593</ele>
        <time>2020-04-05T18:06:02Z</time>
      </trkpt>
      <trkpt lat="48.35993" lon="7.17846">
        <ele>593</ele>
        <time>2020-04-05T18:06:07Z</time>
      </trkpt>
      <trkpt lat="48.36002" lon="7.17899">
        <ele>591</ele>
        <time>2020-04-05T18:06:13Z</time>
      </trkpt>
      <trkpt lat="48.36051" lon="7.18031">
        <ele>588</ele>
        <time>2020-04-05T18:06:31Z</time>
      </trkpt>
      <trkpt lat="48.36071" lon="7.18104">
        <ele>582</ele>
        <time>2020-04-05T18:06:40Z</time>
      </trkpt>
      <trkpt lat="48.36089" lon="7.18212">
        <ele>573</ele>
        <time>2020-04-05T18:06:53Z</time>
      </trkpt>
      <trkpt lat="48.36104" lon="7.18301">
        <ele>568</ele>
        <time>2020-04-05T18:07:04Z</time>
      </trkpt>
      <trkpt lat="48.36112" lon="7.18343">
        <ele>566</ele>
        <time>2020-04-05T18:07:09Z</time>
      </trkpt>
      <trkpt lat="48.3612" lon="7.18373">
        <ele>566</ele>
        <time>2020-04-05T18:07:13Z</time>
      </trkpt>
      <trkpt lat="48.36136" lon="7.18409">
        <ele>567</ele>
        <time>2020-04-05T18:07:18Z</time>
      </trkpt>
      <trkpt lat="48.36157" lon="7.18462">
        <ele>567</ele>
        <time>2020-04-05T18:07:26Z</time>
      </trkpt>
      <trkpt lat="48.36159" lon="7.18469">
        <ele>567</ele>
        <time>2020-04-05T18:07:27Z</time>
      </trkpt>
      <trkpt lat="48.36165" lon="7.18502">
        <ele>567</ele>
        <time>2020-04-05T18:07:31Z</time>
      </trkpt>
      <trkpt lat="48.36167" lon="7.18542">
        <ele>567</ele>
        <time>2020-04-05T18:07:35Z</time>
      </trkpt>
      <trkpt lat="48.36154" lon="7.18728">
        <ele>563</ele>
        <time>2020-04-05T18:07:58Z</time>
      </trkpt>
      <trkpt lat="48.36166" lon="7.18834">
        <ele>561</ele>
        <time>2020-04-05T18:08:10Z</time>
      </trkpt>
      <trkpt lat="48.36212" lon="7.19002">
        <ele>561</ele>
        <time>2020-04-05T18:08:32Z</time>
      </trkpt>
      <trkpt lat="48.36228" lon="7.1909">
        <ele>560</ele>
        <time>2020-04-05T18:08:42Z</time>
      </trkpt>
      <trkpt lat="48.3624" lon="7.1921">
        <ele>555</ele>
        <time>2020-04-05T18:08:57Z</time>
      </trkpt>
      <trkpt lat="48.36249" lon="7.19321">
        <ele>551</ele>
        <time>2020-04-05T18:09:10Z</time>
      </trkpt>
      <trkpt lat="48.3625" lon="7.19384">
        <ele>546</ele>
        <time>2020-04-05T18:09:18Z</time>
      </trkpt>
      <trkpt lat="48.36244" lon="7.19481">
        <ele>547</ele>
        <time>2020-04-05T18:09:29Z</time>
      </trkpt>
      <trkpt lat="48.36244" lon="7.19489">
        <ele>547</ele>
        <time>2020-04-05T18:09:30Z</time>
      </trkpt>
      <trkpt lat="48.36245" lon="7.19512">
        <ele>547</ele>
        <time>2020-04-05T18:09:33Z</time>
      </trkpt>
      <trkpt lat="48.36246" lon="7.19535">
        <ele>547</ele>
        <time>2020-04-05T18:09:35Z</time>
      </trkpt>
      <trkpt lat="48.36254" lon="7.19598">
        <ele>546</ele>
        <time>2020-04-05T18:09:43Z</time>
      </trkpt>
      <trkpt lat="48.36291" lon="7.19713">
        <ele>542</ele>
        <time>2020-04-05T18:09:58Z</time>
      </trkpt>
      <trkpt lat="48.36334" lon="7.19835">
        <ele>535</ele>
        <time>2020-04-05T18:10:14Z</time>
      </trkpt>
      <trkpt lat="48.36358" lon="7.19901">
        <ele>539</ele>
        <time>2020-04-05T18:10:23Z</time>
      </trkpt>
      <trkpt lat="48.3636" lon="7.19917">
        <ele>540</ele>
        <time>2020-04-05T18:10:25Z</time>
      </trkpt>
      <trkpt lat="48.36361" lon="7.19938">
        <ele>540</ele>
        <time>2020-04-05T18:10:28Z</time>
      </trkpt>
      <trkpt lat="48.3636" lon="7.19942">
        <ele>540</ele>
        <time>2020-04-05T18:10:28Z</time>
      </trkpt>
      <trkpt lat="48.36362" lon="7.19954">
        <ele>540</ele>
        <time>2020-04-05T18:10:30Z</time>
      </trkpt>
      <trkpt lat="48.36365" lon="7.19958">
        <ele>540</ele>
        <time>2020-04-05T18:10:30Z</time>
      </trkpt>
      <trkpt lat="48.36367" lon="7.19981">
        <ele>541</ele>
        <time>2020-04-05T18:10:33Z</time>
      </trkpt>
      <trkpt lat="48.36367" lon="7.20014">
        <ele>541</ele>
        <time>2020-04-05T18:10:37Z</time>
      </trkpt>
      <trkpt lat="48.36369" lon="7.20129">
        <ele>541</ele>
        <time>2020-04-05T18:10:51Z</time>
      </trkpt>
      <trkpt lat="48.36369" lon="7.20136">
        <ele>541</ele>
        <time>2020-04-05T18:10:51Z</time>
      </trkpt>
      <trkpt lat="48.36369" lon="7.20156">
        <ele>540</ele>
        <time>2020-04-05T18:10:54Z</time>
      </trkpt>
      <trkpt lat="48.36369" lon="7.20174">
        <ele>540</ele>
        <time>2020-04-05T18:10:56Z</time>
      </trkpt>
      <trkpt lat="48.36371" lon="7.20194">
        <ele>540</ele>
        <time>2020-04-05T18:10:58Z</time>
      </trkpt>
      <trkpt lat="48.36385" lon="7.2025">
        <ele>542</ele>
        <time>2020-04-05T18:11:05Z</time>
      </trkpt>
      <trkpt lat="48.36428" lon="7.20371">
        <ele>547</ele>
        <time>2020-04-05T18:11:22Z</time>
      </trkpt>
      <trkpt lat="48.36481" lon="7.20509">
        <ele>549</ele>
        <time>2020-04-05T18:11:41Z</time>
      </trkpt>
      <trkpt lat="48.36531" lon="7.20591">
        <ele>543</ele>
        <time>2020-04-05T18:11:54Z</time>
      </trkpt>
      <trkpt lat="48.36544" lon="7.20618">
        <ele>540</ele>
        <time>2020-04-05T18:11:58Z</time>
      </trkpt>
      <trkpt lat="48.3658" lon="7.20747">
        <ele>530</ele>
        <time>2020-04-05T18:12:14Z</time>
      </trkpt>
      <trkpt lat="48.36599" lon="7.20797">
        <ele>533</ele>
        <time>2020-04-05T18:12:21Z</time>
      </trkpt>
      <trkpt lat="48.36607" lon="7.20826">
        <ele>533</ele>
        <time>2020-04-05T18:12:25Z</time>
      </trkpt>
      <trkpt lat="48.36616" lon="7.20919">
        <ele>533</ele>
        <time>2020-04-05T18:12:36Z</time>
      </trkpt>
      <trkpt lat="48.36622" lon="7.21039">
        <ele>527</ele>
        <time>2020-04-05T18:12:50Z</time>
      </trkpt>
      <trkpt lat="48.36626" lon="7.21068">
        <ele>527</ele>
        <time>2020-04-05T18:12:54Z</time>
      </trkpt>
      <trkpt lat="48.36646" lon="7.21145">
        <ele>524</ele>
        <time>2020-04-05T18:13:03Z</time>
      </trkpt>
      <trkpt lat="48.36651" lon="7.21176">
        <ele>523</ele>
        <time>2020-04-05T18:13:07Z</time>
      </trkpt>
      <trkpt lat="48.36653" lon="7.21196">
        <ele>524</ele>
        <time>2020-04-05T18:13:09Z</time>
      </trkpt>
      <trkpt lat="48.36654" lon="7.21219">
        <ele>524</ele>
        <time>2020-04-05T18:13:12Z</time>
      </trkpt>
      <trkpt lat="48.36652" lon="7.21235">
        <ele>523</ele>
        <time>2020-04-05T18:13:14Z</time>
      </trkpt>
      <trkpt lat="48.36648" lon="7.21252">
        <ele>522</ele>
        <time>2020-04-05T18:13:16Z</time>
      </trkpt>
      <trkpt lat="48.36613" lon="7.21332">
        <ele>517</ele>
        <time>2020-04-05T18:13:28Z</time>
      </trkpt>
      <trkpt lat="48.36608" lon="7.21355">
        <ele>515</ele>
        <time>2020-04-05T18:13:30Z</time>
      </trkpt>
      <trkpt lat="48.36605" lon="7.21372">
        <ele>514</ele>
        <time>2020-04-05T18:13:32Z</time>
      </trkpt>
      <trkpt lat="48.36607" lon="7.21401">
        <ele>514</ele>
        <time>2020-04-05T18:13:36Z</time>
      </trkpt>
      <trkpt lat="48.36612" lon="7.21438">
        <ele>514</ele>
        <time>2020-04-05T18:13:40Z</time>
      </trkpt>
      <trkpt lat="48.36628" lon="7.21524">
        <ele>515</ele>
        <time>2020-04-05T18:13:51Z</time>
      </trkpt>
      <trkpt lat="48.36628" lon="7.21535">
        <ele>515</ele>
        <time>2020-04-05T18:13:52Z</time>
      </trkpt>
      <trkpt lat="48.36629" lon="7.21549">
        <ele>515</ele>
        <time>2020-04-05T18:13:54Z</time>
      </trkpt>
      <trkpt lat="48.3663" lon="7.21595">
        <ele>516</ele>
        <time>2020-04-05T18:13:59Z</time>
      </trkpt>
      <trkpt lat="48.36627" lon="7.21633">
        <ele>516</ele>
        <time>2020-04-05T18:14:04Z</time>
      </trkpt>
      <trkpt lat="48.3662" lon="7.21673">
        <ele>514</ele>
        <time>2020-04-05T18:14:09Z</time>
      </trkpt>
      <trkpt lat="48.36595" lon="7.21737">
        <ele>506</ele>
        <time>2020-04-05T18:14:18Z</time>
      </trkpt>
      <trkpt lat="48.36585" lon="7.21775">
        <ele>501</ele>
        <time>2020-04-05T18:14:22Z</time>
      </trkpt>
      <trkpt lat="48.36583" lon="7.21805">
        <ele>500</ele>
        <time>2020-04-05T18:14:26Z</time>
      </trkpt>
      <trkpt lat="48.36585" lon="7.21826">
        <ele>501</ele>
        <time>2020-04-05T18:14:28Z</time>
      </trkpt>
      <trkpt lat="48.36612" lon="7.22064">
        <ele>495</ele>
        <time>2020-04-05T18:14:57Z</time>
      </trkpt>
      <trkpt lat="48.36619" lon="7.22102">
        <ele>492</ele>
        <time>2020-04-05T18:15:02Z</time>
      </trkpt>
      <trkpt lat="48.36628" lon="7.22138">
        <ele>489</ele>
        <time>2020-04-05T18:15:06Z</time>
      </trkpt>
      <trkpt lat="48.36647" lon="7.22174">
        <ele>491</ele>
        <time>2020-04-05T18:15:12Z</time>
      </trkpt>
      <trkpt lat="48.36679" lon="7.22221">
        <ele>497</ele>
        <time>2020-04-05T18:15:20Z</time>
      </trkpt>
      <trkpt lat="48.3669" lon="7.22249">
        <ele>496</ele>
        <time>2020-04-05T18:15:23Z</time>
      </trkpt>
      <trkpt lat="48.36695" lon="7.22275">
        <ele>499</ele>
        <time>2020-04-05T18:15:27Z</time>
      </trkpt>
      <trkpt lat="48.36692" lon="7.22297">
        <ele>499</ele>
        <time>2020-04-05T18:15:29Z</time>
      </trkpt>
      <trkpt lat="48.36684" lon="7.22311">
        <ele>496</ele>
        <time>2020-04-05T18:15:31Z</time>
      </trkpt>
      <trkpt lat="48.36651" lon="7.22327">
        <ele>486</ele>
        <time>2020-04-05T18:15:38Z</time>
      </trkpt>
      <trkpt lat="48.36637" lon="7.22337">
        <ele>482</ele>
        <time>2020-04-05T18:15:40Z</time>
      </trkpt>
      <trkpt lat="48.36627" lon="7.22356">
        <ele>480</ele>
        <time>2020-04-05T18:15:43Z</time>
      </trkpt>
      <trkpt lat="48.36624" lon="7.22376">
        <ele>481</ele>
        <time>2020-04-05T18:15:46Z</time>
      </trkpt>
      <trkpt lat="48.36626" lon="7.2239">
        <ele>482</ele>
        <time>2020-04-05T18:15:47Z</time>
      </trkpt>
      <trkpt lat="48.36634" lon="7.22446">
        <ele>486</ele>
        <time>2020-04-05T18:15:54Z</time>
      </trkpt>
      <trkpt lat="48.36636" lon="7.22487">
        <ele>485</ele>
        <time>2020-04-05T18:15:59Z</time>
      </trkpt>
      <trkpt lat="48.36633" lon="7.22528">
        <ele>483</ele>
        <time>2020-04-05T18:16:04Z</time>
      </trkpt>
      <trkpt lat="48.36622" lon="7.22689">
        <ele>478</ele>
        <time>2020-04-05T18:16:23Z</time>
      </trkpt>
      <trkpt lat="48.36607" lon="7.2277">
        <ele>470</ele>
        <time>2020-04-05T18:16:33Z</time>
      </trkpt>
      <trkpt lat="48.36605" lon="7.22799">
        <ele>468</ele>
        <time>2020-04-05T18:16:36Z</time>
      </trkpt>
      <trkpt lat="48.36608" lon="7.22825">
        <ele>469</ele>
        <time>2020-04-05T18:16:40Z</time>
      </trkpt>
      <trkpt lat="48.36618" lon="7.22845">
        <ele>471</ele>
        <time>2020-04-05T18:16:42Z</time>
      </trkpt>
      <trkpt lat="48.36636" lon="7.22867">
        <ele>474</ele>
        <time>2020-04-05T18:16:47Z</time>
      </trkpt>
      <trkpt lat="48.36642" lon="7.2288">
        <ele>474</ele>
        <time>2020-04-05T18:16:48Z</time>
      </trkpt>
      <trkpt lat="48.36644" lon="7.22883">
        <ele>474</ele>
        <time>2020-04-05T18:16:49Z</time>
      </trkpt>
      <trkpt lat="48.36646" lon="7.22894">
        <ele>474</ele>
        <time>2020-04-05T18:16:50Z</time>
      </trkpt>
      <trkpt lat="48.36646" lon="7.22909">
        <ele>472</ele>
        <time>2020-04-05T18:16:52Z</time>
      </trkpt>
      <trkpt lat="48.3664" lon="7.22948">
        <ele>467</ele>
        <time>2020-04-05T18:16:57Z</time>
      </trkpt>
      <trkpt lat="48.36638" lon="7.22972">
        <ele>466</ele>
        <time>2020-04-05T18:17:00Z</time>
      </trkpt>
      <trkpt lat="48.36642" lon="7.22995">
        <ele>466</ele>
        <time>2020-04-05T18:17:03Z</time>
      </trkpt>
      <trkpt lat="48.36651" lon="7.23011">
        <ele>467</ele>
        <time>2020-04-05T18:17:05Z</time>
      </trkpt>
      <trkpt lat="48.36689" lon="7.23047">
        <ele>471</ele>
        <time>2020-04-05T18:17:13Z</time>
      </trkpt>
      <trkpt lat="48.36692" lon="7.23055">
        <ele>471</ele>
        <time>2020-04-05T18:17:14Z</time>
      </trkpt>
      <trkpt lat="48.36696" lon="7.23066">
        <ele>470</ele>
        <time>2020-04-05T18:17:16Z</time>
      </trkpt>
      <trkpt lat="48.36701" lon="7.23091">
        <ele>470</ele>
        <time>2020-04-05T18:17:19Z</time>
      </trkpt>
      <trkpt lat="48.367" lon="7.23103">
        <ele>471</ele>
        <time>2020-04-05T18:17:20Z</time>
      </trkpt>
      <trkpt lat="48.36696" lon="7.23128">
        <ele>474</ele>
        <time>2020-04-05T18:17:23Z</time>
      </trkpt>
      <trkpt lat="48.36686" lon="7.23146">
        <ele>472</ele>
        <time>2020-04-05T18:17:26Z</time>
      </trkpt>
      <trkpt lat="48.36647" lon="7.23175">
        <ele>461</ele>
        <time>2020-04-05T18:17:34Z</time>
      </trkpt>
      <trkpt lat="48.36639" lon="7.23187">
        <ele>459</ele>
        <time>2020-04-05T18:17:36Z</time>
      </trkpt>
      <trkpt lat="48.36593" lon="7.23277">
        <ele>453</ele>
        <time>2020-04-05T18:17:49Z</time>
      </trkpt>
      <trkpt lat="48.36555" lon="7.23322">
        <ele>449</ele>
        <time>2020-04-05T18:17:58Z</time>
      </trkpt>
      <trkpt lat="48.36513" lon="7.23423">
        <ele>446</ele>
        <time>2020-04-05T18:18:12Z</time>
      </trkpt>
      <trkpt lat="48.36488" lon="7.23477">
        <ele>439</ele>
        <time>2020-04-05T18:18:20Z</time>
      </trkpt>
      <trkpt lat="48.36468" lon="7.23505">
        <ele>436</ele>
        <time>2020-04-05T18:18:24Z</time>
      </trkpt>
      <trkpt lat="48.36444" lon="7.23529">
        <ele>433</ele>
        <time>2020-04-05T18:18:30Z</time>
      </trkpt>
      <trkpt lat="48.3643" lon="7.23535">
        <ele>432</ele>
        <time>2020-04-05T18:18:32Z</time>
      </trkpt>
      <trkpt lat="48.36413" lon="7.23531">
        <ele>432</ele>
        <time>2020-04-05T18:18:35Z</time>
      </trkpt>
      <trkpt lat="48.36405" lon="7.23524">
        <ele>431</ele>
        <time>2020-04-05T18:18:37Z</time>
      </trkpt>
      <trkpt lat="48.3639" lon="7.23504">
        <ele>428</ele>
        <time>2020-04-05T18:18:40Z</time>
      </trkpt>
      <trkpt lat="48.36386" lon="7.23494">
        <ele>427</ele>
        <time>2020-04-05T18:18:42Z</time>
      </trkpt>
      <trkpt lat="48.36383" lon="7.23483">
        <ele>426</ele>
        <time>2020-04-05T18:18:43Z</time>
      </trkpt>
      <trkpt lat="48.3638" lon="7.23442">
        <ele>425</ele>
        <time>2020-04-05T18:18:48Z</time>
      </trkpt>
      <trkpt lat="48.3638" lon="7.2337">
        <ele>423</ele>
        <time>2020-04-05T18:18:57Z</time>
      </trkpt>
      <trkpt lat="48.36388" lon="7.23308">
        <ele>420</ele>
        <time>2020-04-05T18:19:04Z</time>
      </trkpt>
      <trkpt lat="48.36405" lon="7.23268">
        <ele>420</ele>
        <time>2020-04-05T18:19:10Z</time>
      </trkpt>
      <trkpt lat="48.3643" lon="7.23245">
        <ele>421</ele>
        <time>2020-04-05T18:19:15Z</time>
      </trkpt>
      <trkpt lat="48.36447" lon="7.23243">
        <ele>422</ele>
        <time>2020-04-05T18:19:18Z</time>
      </trkpt>
      <trkpt lat="48.36484" lon="7.23251">
        <ele>425</ele>
        <time>2020-04-05T18:19:25Z</time>
      </trkpt>
      <trkpt lat="48.36495" lon="7.23251">
        <ele>425</ele>
        <time>2020-04-05T18:19:26Z</time>
      </trkpt>
      <trkpt lat="48.3651" lon="7.23243">
        <ele>426</ele>
        <time>2020-04-05T18:19:29Z</time>
      </trkpt>
      <trkpt lat="48.36527" lon="7.23223">
        <ele>428</ele>
        <time>2020-04-05T18:19:33Z</time>
      </trkpt>
      <trkpt lat="48.36538" lon="7.23205">
        <ele>428</ele>
        <time>2020-04-05T18:19:36Z</time>
      </trkpt>
      <trkpt lat="48.36545" lon="7.23188">
        <ele>427</ele>
        <time>2020-04-05T18:19:38Z</time>
      </trkpt>
      <trkpt lat="48.36548" lon="7.23175">
        <ele>426</ele>
        <time>2020-04-05T18:19:40Z</time>
      </trkpt>
      <trkpt lat="48.36549" lon="7.23144">
        <ele>427</ele>
        <time>2020-04-05T18:19:44Z</time>
      </trkpt>
      <trkpt lat="48.36542" lon="7.2311">
        <ele>426</ele>
        <time>2020-04-05T18:19:48Z</time>
      </trkpt>
      <trkpt lat="48.36534" lon="7.23087">
        <ele>424</ele>
        <time>2020-04-05T18:19:51Z</time>
      </trkpt>
      <trkpt lat="48.36513" lon="7.23044">
        <ele>420</ele>
        <time>2020-04-05T18:19:57Z</time>
      </trkpt>
      <trkpt lat="48.36474" lon="7.2298">
        <ele>411</ele>
        <time>2020-04-05T18:20:08Z</time>
      </trkpt>
      <trkpt lat="48.36469" lon="7.22956">
        <ele>410</ele>
        <time>2020-04-05T18:20:11Z</time>
      </trkpt>
      <trkpt lat="48.36473" lon="7.22897">
        <ele>413</ele>
        <time>2020-04-05T18:20:18Z</time>
      </trkpt>
      <trkpt lat="48.36467" lon="7.22879">
        <ele>413</ele>
        <time>2020-04-05T18:20:20Z</time>
      </trkpt>
      <trkpt lat="48.36454" lon="7.22863">
        <ele>410</ele>
        <time>2020-04-05T18:20:23Z</time>
      </trkpt>
      <trkpt lat="48.36419" lon="7.2285">
        <ele>400</ele>
        <time>2020-04-05T18:20:29Z</time>
      </trkpt>
      <trkpt lat="48.36409" lon="7.2284">
        <ele>397</ele>
        <time>2020-04-05T18:20:31Z</time>
      </trkpt>
      <trkpt lat="48.36406" lon="7.22824">
        <ele>396</ele>
        <time>2020-04-05T18:20:33Z</time>
      </trkpt>
      <trkpt lat="48.36411" lon="7.22795">
        <ele>397</ele>
        <time>2020-04-05T18:20:37Z</time>
      </trkpt>
      <trkpt lat="48.36426" lon="7.22747">
        <ele>401</ele>
        <time>2020-04-05T18:20:43Z</time>
      </trkpt>
      <trkpt lat="48.36425" lon="7.22728">
        <ele>401</ele>
        <time>2020-04-05T18:20:45Z</time>
      </trkpt>
      <trkpt lat="48.36407" lon="7.22671">
        <ele>394</ele>
        <time>2020-04-05T18:20:53Z</time>
      </trkpt>
      <trkpt lat="48.36402" lon="7.2264">
        <ele>392</ele>
        <time>2020-04-05T18:20:57Z</time>
      </trkpt>
      <trkpt lat="48.36406" lon="7.22481">
        <ele>393</ele>
        <time>2020-04-05T18:21:16Z</time>
      </trkpt>
      <trkpt lat="48.36401" lon="7.22413">
        <ele>392</ele>
        <time>2020-04-05T18:21:24Z</time>
      </trkpt>
      <trkpt lat="48.36389" lon="7.22329">
        <ele>392</ele>
        <time>2020-04-05T18:21:34Z</time>
      </trkpt>
      <trkpt lat="48.36389" lon="7.22287">
        <ele>391</ele>
        <time>2020-04-05T18:21:39Z</time>
      </trkpt>
      <trkpt lat="48.36389" lon="7.2227">
        <ele>390</ele>
        <time>2020-04-05T18:21:41Z</time>
      </trkpt>
      <trkpt lat="48.36388" lon="7.22248">
        <ele>389</ele>
        <time>2020-04-05T18:21:43Z</time>
      </trkpt>
      <trkpt lat="48.36382" lon="7.22222">
        <ele>388</ele>
        <time>2020-04-05T18:21:47Z</time>
      </trkpt>
      <trkpt lat="48.36373" lon="7.22204">
        <ele>386</ele>
        <time>2020-04-05T18:21:49Z</time>
      </trkpt>
      <trkpt lat="48.36365" lon="7.22196">
        <ele>384</ele>
        <time>2020-04-05T18:21:51Z</time>
      </trkpt>
      <trkpt lat="48.3635" lon="7.22189">
        <ele>382</ele>
        <time>2020-04-05T18:21:54Z</time>
      </trkpt>
      <trkpt lat="48.36339" lon="7.2219">
        <ele>381</ele>
        <time>2020-04-05T18:21:56Z</time>
      </trkpt>
      <trkpt lat="48.3633" lon="7.22198">
        <ele>379</ele>
        <time>2020-04-05T18:21:58Z</time>
      </trkpt>
      <trkpt lat="48.36326" lon="7.22217">
        <ele>379</ele>
        <time>2020-04-05T18:22:00Z</time>
      </trkpt>
      <trkpt lat="48.36325" lon="7.22253">
        <ele>379</ele>
        <time>2020-04-05T18:22:04Z</time>
      </trkpt>
      <trkpt lat="48.36324" lon="7.22279">
        <ele>378</ele>
        <time>2020-04-05T18:22:07Z</time>
      </trkpt>
      <trkpt lat="48.36324" lon="7.22351">
        <ele>377</ele>
        <time>2020-04-05T18:22:16Z</time>
      </trkpt>
      <trkpt lat="48.36327" lon="7.22392">
        <ele>376</ele>
        <time>2020-04-05T18:22:21Z</time>
      </trkpt>
      <trkpt lat="48.36341" lon="7.2249">
        <ele>375</ele>
        <time>2020-04-05T18:22:33Z</time>
      </trkpt>
      <trkpt lat="48.36343" lon="7.22534">
        <ele>374</ele>
        <time>2020-04-05T18:22:38Z</time>
      </trkpt>
      <trkpt lat="48.36342" lon="7.22606">
        <ele>374</ele>
        <time>2020-04-05T18:22:46Z</time>
      </trkpt>
      <trkpt lat="48.36338" lon="7.22682">
        <ele>374</ele>
        <time>2020-04-05T18:22:55Z</time>
      </trkpt>
      <trkpt lat="48.36334" lon="7.22721">
        <ele>373</ele>
        <time>2020-04-05T18:23:00Z</time>
      </trkpt>
      <trkpt lat="48.36332" lon="7.22754">
        <ele>372</ele>
        <time>2020-04-05T18:23:04Z</time>
      </trkpt>
      <trkpt lat="48.36325" lon="7.22829">
        <ele>370</ele>
        <time>2020-04-05T18:23:13Z</time>
      </trkpt>
      <trkpt lat="48.36319" lon="7.22869">
        <ele>370</ele>
        <time>2020-04-05T18:23:18Z</time>
      </trkpt>
      <trkpt lat="48.36312" lon="7.2291">
        <ele>369</ele>
        <time>2020-04-05T18:23:23Z</time>
      </trkpt>
      <trkpt lat="48.36308" lon="7.22922">
        <ele>369</ele>
        <time>2020-04-05T18:23:24Z</time>
      </trkpt>
      <trkpt lat="48.36306" lon="7.22929">
        <ele>368</ele>
        <time>2020-04-05T18:23:25Z</time>
      </trkpt>
      <trkpt lat="48.36301" lon="7.22941">
        <ele>368</ele>
        <time>2020-04-05T18:23:27Z</time>
      </trkpt>
      <trkpt lat="48.36287" lon="7.2297">
        <ele>366</ele>
        <time>2020-04-05T18:23:31Z</time>
      </trkpt>
      <trkpt lat="48.3628" lon="7.22984">
        <ele>365</ele>
        <time>2020-04-05T18:23:33Z</time>
      </trkpt>
      <trkpt lat="48.36276" lon="7.22996">
        <ele>365</ele>
        <time>2020-04-05T18:23:35Z</time>
      </trkpt>
      <trkpt lat="48.36272" lon="7.23012">
        <ele>364</ele>
        <time>2020-04-05T18:23:37Z</time>
      </trkpt>
      <trkpt lat="48.36263" lon="7.23066">
        <ele>364</ele>
        <time>2020-04-05T18:23:43Z</time>
      </trkpt>
      <trkpt lat="48.36261" lon="7.23101">
        <ele>364</ele>
        <time>2020-04-05T18:23:47Z</time>
      </trkpt>
      <trkpt lat="48.36262" lon="7.23219">
        <ele>368</ele>
        <time>2020-04-05T18:24:01Z</time>
      </trkpt>
      <trkpt lat="48.3626" lon="7.23237">
        <ele>367</ele>
        <time>2020-04-05T18:24:04Z</time>
      </trkpt>
      <trkpt lat="48.36237" lon="7.23329">
        <ele>365</ele>
        <time>2020-04-05T18:24:15Z</time>
      </trkpt>
      <trkpt lat="48.36225" lon="7.23385">
        <ele>365</ele>
        <time>2020-04-05T18:24:22Z</time>
      </trkpt>
      <trkpt lat="48.36203" lon="7.23481">
        <ele>363</ele>
        <time>2020-04-05T18:24:34Z</time>
      </trkpt>
      <trkpt lat="48.36186" lon="7.23562">
        <ele>359</ele>
        <time>2020-04-05T18:24:44Z</time>
      </trkpt>
      <trkpt lat="48.3618" lon="7.2359">
        <ele>358</ele>
        <time>2020-04-05T18:24:48Z</time>
      </trkpt>
      <trkpt lat="48.36164" lon="7.23663">
        <ele>356</ele>
        <time>2020-04-05T18:24:57Z</time>
      </trkpt>
      <trkpt lat="48.36154" lon="7.2369">
        <ele>356</ele>
        <time>2020-04-05T18:25:00Z</time>
      </trkpt>
      <trkpt lat="48.36149" lon="7.23702">
        <ele>357</ele>
        <time>2020-04-05T18:25:02Z</time>
      </trkpt>
      <trkpt lat="48.36143" lon="7.23715">
        <ele>357</ele>
        <time>2020-04-05T18:25:04Z</time>
      </trkpt>
      <trkpt lat="48.36116" lon="7.23753">
        <ele>357</ele>
        <time>2020-04-05T18:25:11Z</time>
      </trkpt>
      <trkpt lat="48.3607" lon="7.23837">
        <ele>357</ele>
        <time>2020-04-05T18:25:23Z</time>
      </trkpt>
      <trkpt lat="48.36063" lon="7.23849">
        <ele>357</ele>
        <time>2020-04-05T18:25:25Z</time>
      </trkpt>
      <trkpt lat="48.36047" lon="7.23874">
        <ele>357</ele>
        <time>2020-04-05T18:25:29Z</time>
      </trkpt>
      <trkpt lat="48.36042" lon="7.23881">
        <ele>357</ele>
        <time>2020-04-05T18:25:31Z</time>
      </trkpt>
      <trkpt lat="48.36017" lon="7.23919">
        <ele>356</ele>
        <time>2020-04-05T18:25:37Z</time>
      </trkpt>
      <trkpt lat="48.35994" lon="7.2396">
        <ele>355</ele>
        <time>2020-04-05T18:25:43Z</time>
      </trkpt>
      <trkpt lat="48.35992" lon="7.23965">
        <ele>355</ele>
        <time>2020-04-05T18:25:44Z</time>
      </trkpt>
      <trkpt lat="48.35976" lon="7.23996">
        <ele>354</ele>
        <time>2020-04-05T18:25:49Z</time>
      </trkpt>
      <trkpt lat="48.35967" lon="7.24012">
        <ele>355</ele>
        <time>2020-04-05T18:25:51Z</time>
      </trkpt>
      <trkpt lat="48.35955" lon="7.24034">
        <ele>355</ele>
        <time>2020-04-05T18:25:54Z</time>
      </trkpt>
      <trkpt lat="48.35941" lon="7.24057">
        <ele>355</ele>
        <time>2020-04-05T18:25:58Z</time>
      </trkpt>
      <trkpt lat="48.35855" lon="7.24169">
        <ele>355</ele>
        <time>2020-04-05T18:26:18Z</time>
      </trkpt>
      <trkpt lat="48.3581" lon="7.2423">
        <ele>354</ele>
        <time>2020-04-05T18:26:29Z</time>
      </trkpt>
      <trkpt lat="48.358" lon="7.24247">
        <ele>355</ele>
        <time>2020-04-05T18:26:32Z</time>
      </trkpt>
      <trkpt lat="48.35789" lon="7.24269">
        <ele>355</ele>
        <time>2020-04-05T18:26:35Z</time>
      </trkpt>
      <trkpt lat="48.35781" lon="7.24284">
        <ele>355</ele>
        <time>2020-04-05T18:26:37Z</time>
      </trkpt>
      <trkpt lat="48.35774" lon="7.24292">
        <ele>355</ele>
        <time>2020-04-05T18:26:39Z</time>
      </trkpt>
      <trkpt lat="48.35821" lon="7.24377">
        <ele>363</ele>
        <time>2020-04-05T18:26:52Z</time>
      </trkpt>
      <trkpt lat="48.35835" lon="7.24424">
        <ele>368</ele>
        <time>2020-04-05T18:26:58Z</time>
      </trkpt>
      <trkpt lat="48.35887" lon="7.24477">
        <ele>376</ele>
        <time>2020-04-05T18:27:09Z</time>
      </trkpt>
      <trkpt lat="48.35893" lon="7.24479">
        <ele>376</ele>
        <time>2020-04-05T18:27:10Z</time>
      </trkpt>
      <trkpt lat="48.35922" lon="7.24463">
        <ele>375</ele>
        <time>2020-04-05T18:27:16Z</time>
      </trkpt>
      <trkpt lat="48.35944" lon="7.24444">
        <ele>376</ele>
        <time>2020-04-05T18:27:20Z</time>
      </trkpt>
      <trkpt lat="48.35948" lon="7.24437">
        <ele>377</ele>
        <time>2020-04-05T18:27:21Z</time>
      </trkpt>
      <trkpt lat="48.35951" lon="7.24429">
        <ele>377</ele>
        <time>2020-04-05T18:27:23Z</time>
      </trkpt>
      <trkpt lat="48.35952" lon="7.24416">
        <ele>377</ele>
        <time>2020-04-05T18:27:24Z</time>
      </trkpt>
      <trkpt lat="48.35944" lon="7.24358">
        <ele>376</ele>
        <time>2020-04-05T18:27:31Z</time>
      </trkpt>
      <trkpt lat="48.35947" lon="7.24342">
        <ele>376</ele>
        <time>2020-04-05T18:27:33Z</time>
      </trkpt>
      <trkpt lat="48.3595" lon="7.24333">
        <ele>377</ele>
        <time>2020-04-05T18:27:34Z</time>
      </trkpt>
      <trkpt lat="48.35961" lon="7.24329">
        <ele>378</ele>
        <time>2020-04-05T18:27:36Z</time>
      </trkpt>
      <trkpt lat="48.36058" lon="7.24324">
        <ele>389</ele>
        <time>2020-04-05T18:27:54Z</time>
      </trkpt>
      <trkpt lat="48.36073" lon="7.24327">
        <ele>391</ele>
        <time>2020-04-05T18:27:56Z</time>
      </trkpt>
      <trkpt lat="48.36087" lon="7.24333">
        <ele>392</ele>
        <time>2020-04-05T18:27:59Z</time>
      </trkpt>
      <trkpt lat="48.3611" lon="7.24353">
        <ele>394</ele>
        <time>2020-04-05T18:28:04Z</time>
      </trkpt>
      <trkpt lat="48.36115" lon="7.24337">
        <ele>395</ele>
        <time>2020-04-05T18:28:06Z</time>
      </trkpt>
      <trkpt lat="48.36117" lon="7.24335">
        <ele>396</ele>
        <time>2020-04-05T18:28:06Z</time>
      </trkpt>
    </trkseg>
  </trk>
</gpx>